<?xml version="1.0" encoding="UTF-8" standalone="no" ?>
<gpx xmlns="http://www.topografix.com/GPX/1/1" xmlns:xsi="http://www.w3.org/2001/XMLSchema-instance" xsi:schemaLocation="http://www.topografix.com/GPX/1/1 http://www.topografix.com/GPX/1/1/gpx.xsd" version="1.1" creator="VisuGPX - https://www.visugpx.com">
  <metadata>
    <name>Road trip fait P/E</name>
  </metadata>
  <trk>
    <name><![CDATA[Road trip fait P/E_15]]></name>
    <extensions>
      <line xmlns="http://www.topografix.com/GPX/gpx_style/0/2">
        <color>880000</color>
        <width>4</width>
      </line>
    </extensions>
    <trkseg>
      <trkpt lat="41.86141" lon="0.83096">
        <ele>280.1281</ele>
        <time>2021-07-22T07:44:48Z</time>
      </trkpt>
      <trkpt lat="41.86141" lon="0.83096">
        <ele>280.1281</ele>
        <time>2021-07-22T07:44:48Z</time>
      </trkpt>
      <trkpt lat="41.86133" lon="0.8307">
        <ele>255.0745</ele>
        <time>2021-07-22T07:44:59Z</time>
      </trkpt>
      <trkpt lat="41.86129" lon="0.83071">
        <ele>254.9466</ele>
        <time>2021-07-22T07:45:11Z</time>
      </trkpt>
      <trkpt lat="41.8613" lon="0.83076">
        <ele>254.6786</ele>
        <time>2021-07-22T07:45:25Z</time>
      </trkpt>
      <trkpt lat="41.86125" lon="0.83078">
        <ele>254.1707</ele>
        <time>2021-07-22T07:45:39Z</time>
      </trkpt>
      <trkpt lat="41.86121" lon="0.83077">
        <ele>254.0937</ele>
        <time>2021-07-22T07:45:50Z</time>
      </trkpt>
      <trkpt lat="41.86118" lon="0.83074">
        <ele>253.9041</ele>
        <time>2021-07-22T07:46:02Z</time>
      </trkpt>
      <trkpt lat="41.86119" lon="0.83079">
        <ele>253.6757</ele>
        <time>2021-07-22T07:46:16Z</time>
      </trkpt>
      <trkpt lat="41.86122" lon="0.83082">
        <ele>253.1086</ele>
        <time>2021-07-22T07:46:32Z</time>
      </trkpt>
      <trkpt lat="41.86122" lon="0.83076">
        <ele>252.6621</ele>
        <time>2021-07-22T07:46:43Z</time>
      </trkpt>
      <trkpt lat="41.8612" lon="0.83075">
        <ele>252.8881</ele>
        <time>2021-07-22T07:47:42Z</time>
      </trkpt>
      <trkpt lat="41.86119" lon="0.8308">
        <ele>253.2343</ele>
        <time>2021-07-22T07:48:41Z</time>
      </trkpt>
      <trkpt lat="41.86119" lon="0.83082">
        <ele>253.4022</ele>
        <time>2021-07-22T07:49:40Z</time>
      </trkpt>
      <trkpt lat="41.86119" lon="0.8308">
        <ele>253.3651</ele>
        <time>2021-07-22T07:50:39Z</time>
      </trkpt>
      <trkpt lat="41.86122" lon="0.83077">
        <ele>253.4509</ele>
        <time>2021-07-22T07:51:17Z</time>
      </trkpt>
      <trkpt lat="41.86135" lon="0.8313">
        <ele>253.0277</ele>
        <time>2021-07-22T07:51:28Z</time>
      </trkpt>
      <trkpt lat="41.86109" lon="0.83175">
        <ele>249.5632</ele>
        <time>2021-07-22T07:51:39Z</time>
      </trkpt>
      <trkpt lat="41.86082" lon="0.83204">
        <ele>246.5982</ele>
        <time>2021-07-22T07:51:50Z</time>
      </trkpt>
      <trkpt lat="41.86046" lon="0.83241">
        <ele>246.9837</ele>
        <time>2021-07-22T07:52:01Z</time>
      </trkpt>
      <trkpt lat="41.86038" lon="0.83288">
        <ele>247.0799</ele>
        <time>2021-07-22T07:52:12Z</time>
      </trkpt>
      <trkpt lat="41.86076" lon="0.83354">
        <ele>247.28</ele>
        <time>2021-07-22T07:52:23Z</time>
      </trkpt>
      <trkpt lat="41.86169" lon="0.83537">
        <ele>247.1907</ele>
        <time>2021-07-22T07:52:34Z</time>
      </trkpt>
      <trkpt lat="41.8629" lon="0.83753">
        <ele>249.283</ele>
        <time>2021-07-22T07:52:45Z</time>
      </trkpt>
      <trkpt lat="41.86437" lon="0.83932">
        <ele>251.4348</ele>
        <time>2021-07-22T07:52:56Z</time>
      </trkpt>
      <trkpt lat="41.86557" lon="0.84038">
        <ele>249.7943</ele>
        <time>2021-07-22T07:53:07Z</time>
      </trkpt>
      <trkpt lat="41.86675" lon="0.8407">
        <ele>251.5644</ele>
        <time>2021-07-22T07:53:18Z</time>
      </trkpt>
      <trkpt lat="41.86765" lon="0.84106">
        <ele>253.6098</ele>
        <time>2021-07-22T07:53:29Z</time>
      </trkpt>
      <trkpt lat="41.86849" lon="0.84161">
        <ele>250.4781</ele>
        <time>2021-07-22T07:53:40Z</time>
      </trkpt>
      <trkpt lat="41.86936" lon="0.84173">
        <ele>247.1171</ele>
        <time>2021-07-22T07:53:51Z</time>
      </trkpt>
      <trkpt lat="41.8703" lon="0.84184">
        <ele>252.4232</ele>
        <time>2021-07-22T07:54:02Z</time>
      </trkpt>
      <trkpt lat="41.87166" lon="0.84284">
        <ele>251.6131</ele>
        <time>2021-07-22T07:54:13Z</time>
      </trkpt>
      <trkpt lat="41.87273" lon="0.84358">
        <ele>245.1498</ele>
        <time>2021-07-22T07:54:24Z</time>
      </trkpt>
      <trkpt lat="41.87366" lon="0.84523">
        <ele>253.6641</ele>
        <time>2021-07-22T07:54:35Z</time>
      </trkpt>
      <trkpt lat="41.87423" lon="0.84715">
        <ele>267.1153</ele>
        <time>2021-07-22T07:54:46Z</time>
      </trkpt>
      <trkpt lat="41.87431" lon="0.84898">
        <ele>260.0016</ele>
        <time>2021-07-22T07:54:57Z</time>
      </trkpt>
      <trkpt lat="41.87366" lon="0.85086">
        <ele>251.8283</ele>
        <time>2021-07-22T07:55:08Z</time>
      </trkpt>
      <trkpt lat="41.8735" lon="0.85225">
        <ele>251.9852</ele>
        <time>2021-07-22T07:55:19Z</time>
      </trkpt>
      <trkpt lat="41.87259" lon="0.85426">
        <ele>250.1199</ele>
        <time>2021-07-22T07:55:30Z</time>
      </trkpt>
      <trkpt lat="41.87215" lon="0.85678">
        <ele>257.9925</ele>
        <time>2021-07-22T07:55:41Z</time>
      </trkpt>
      <trkpt lat="41.87167" lon="0.85827">
        <ele>256.0468</ele>
        <time>2021-07-22T07:55:52Z</time>
      </trkpt>
      <trkpt lat="41.87055" lon="0.85967">
        <ele>253.9769</ele>
        <time>2021-07-22T07:56:03Z</time>
      </trkpt>
      <trkpt lat="41.86981" lon="0.86126">
        <ele>260.3696</ele>
        <time>2021-07-22T07:56:14Z</time>
      </trkpt>
      <trkpt lat="41.8694" lon="0.86285">
        <ele>259.6986</ele>
        <time>2021-07-22T07:56:25Z</time>
      </trkpt>
      <trkpt lat="41.8686" lon="0.864">
        <ele>257.9572</ele>
        <time>2021-07-22T07:56:36Z</time>
      </trkpt>
      <trkpt lat="41.86807" lon="0.8649">
        <ele>259.2273</ele>
        <time>2021-07-22T07:56:47Z</time>
      </trkpt>
      <trkpt lat="41.86815" lon="0.86601">
        <ele>259.1465</ele>
        <time>2021-07-22T07:56:58Z</time>
      </trkpt>
      <trkpt lat="41.86868" lon="0.86695">
        <ele>256.0168</ele>
        <time>2021-07-22T07:57:09Z</time>
      </trkpt>
      <trkpt lat="41.86902" lon="0.86799">
        <ele>257.2142</ele>
        <time>2021-07-22T07:57:20Z</time>
      </trkpt>
      <trkpt lat="41.86927" lon="0.86958">
        <ele>259.9285</ele>
        <time>2021-07-22T07:57:31Z</time>
      </trkpt>
      <trkpt lat="41.86949" lon="0.87068">
        <ele>262.1418</ele>
        <time>2021-07-22T07:57:42Z</time>
      </trkpt>
      <trkpt lat="41.86992" lon="0.8718">
        <ele>259.5469</ele>
        <time>2021-07-22T07:57:53Z</time>
      </trkpt>
      <trkpt lat="41.87114" lon="0.87391">
        <ele>257.7983</ele>
        <time>2021-07-22T07:58:04Z</time>
      </trkpt>
      <trkpt lat="41.87259" lon="0.87496">
        <ele>254.4504</ele>
        <time>2021-07-22T07:58:15Z</time>
      </trkpt>
      <trkpt lat="41.87389" lon="0.87556">
        <ele>253.1914</ele>
        <time>2021-07-22T07:58:26Z</time>
      </trkpt>
      <trkpt lat="41.87521" lon="0.87621">
        <ele>259.5491</ele>
        <time>2021-07-22T07:58:37Z</time>
      </trkpt>
      <trkpt lat="41.8761" lon="0.87671">
        <ele>261.777</ele>
        <time>2021-07-22T07:58:48Z</time>
      </trkpt>
      <trkpt lat="41.87563" lon="0.87689">
        <ele>270.513</ele>
        <time>2021-07-22T07:58:59Z</time>
      </trkpt>
      <trkpt lat="41.87503" lon="0.8771">
        <ele>273.1765</ele>
        <time>2021-07-22T07:59:10Z</time>
      </trkpt>
      <trkpt lat="41.87445" lon="0.87689">
        <ele>281.2172</ele>
        <time>2021-07-22T07:59:21Z</time>
      </trkpt>
      <trkpt lat="41.87409" lon="0.8772">
        <ele>281.1408</ele>
        <time>2021-07-22T07:59:32Z</time>
      </trkpt>
      <trkpt lat="41.87419" lon="0.87789">
        <ele>280.9605</ele>
        <time>2021-07-22T07:59:43Z</time>
      </trkpt>
      <trkpt lat="41.8742" lon="0.87796">
        <ele>280.1795</ele>
        <time>2021-07-22T07:59:54Z</time>
      </trkpt>
      <trkpt lat="41.87438" lon="0.87761">
        <ele>284.2803</ele>
        <time>2021-07-22T08:00:05Z</time>
      </trkpt>
      <trkpt lat="41.87456" lon="0.87811">
        <ele>285.9226</ele>
        <time>2021-07-22T08:00:16Z</time>
      </trkpt>
      <trkpt lat="41.8748" lon="0.87822">
        <ele>288.9975</ele>
        <time>2021-07-22T08:00:27Z</time>
      </trkpt>
      <trkpt lat="41.87498" lon="0.87802">
        <ele>289.7973</ele>
        <time>2021-07-22T08:00:38Z</time>
      </trkpt>
      <trkpt lat="41.87525" lon="0.87813">
        <ele>295.8193</ele>
        <time>2021-07-22T08:00:49Z</time>
      </trkpt>
      <trkpt lat="41.8754" lon="0.8782">
        <ele>294.9583</ele>
        <time>2021-07-22T08:01:00Z</time>
      </trkpt>
      <trkpt lat="41.8754" lon="0.87829">
        <ele>295.8756</ele>
        <time>2021-07-22T08:01:11Z</time>
      </trkpt>
      <trkpt lat="41.8755" lon="0.8784">
        <ele>297.7186</ele>
        <time>2021-07-22T08:01:22Z</time>
      </trkpt>
      <trkpt lat="41.87558" lon="0.87917">
        <ele>302.5211</ele>
        <time>2021-07-22T08:01:33Z</time>
      </trkpt>
      <trkpt lat="41.87575" lon="0.87987">
        <ele>301.6044</ele>
        <time>2021-07-22T08:01:44Z</time>
      </trkpt>
      <trkpt lat="41.87552" lon="0.87995">
        <ele>302.0228</ele>
        <time>2021-07-22T08:01:55Z</time>
      </trkpt>
      <trkpt lat="41.87536" lon="0.88063">
        <ele>293.3525</ele>
        <time>2021-07-22T08:02:06Z</time>
      </trkpt>
      <trkpt lat="41.87512" lon="0.88122">
        <ele>301.5931</ele>
        <time>2021-07-22T08:02:17Z</time>
      </trkpt>
      <trkpt lat="41.8748" lon="0.88115">
        <ele>299.8948</ele>
        <time>2021-07-22T08:02:23Z</time>
      </trkpt>
      <trkpt lat="41.87465" lon="0.88189">
        <ele>311.607</ele>
        <time>2021-07-22T08:02:34Z</time>
      </trkpt>
      <trkpt lat="41.8743" lon="0.88285">
        <ele>324.9354</ele>
        <time>2021-07-22T08:02:45Z</time>
      </trkpt>
      <trkpt lat="41.87423" lon="0.88407">
        <ele>335.9415</ele>
        <time>2021-07-22T08:02:56Z</time>
      </trkpt>
      <trkpt lat="41.87458" lon="0.88398">
        <ele>339.3271</ele>
        <time>2021-07-22T08:03:07Z</time>
      </trkpt>
      <trkpt lat="41.87443" lon="0.88525">
        <ele>351.5557</ele>
        <time>2021-07-22T08:03:18Z</time>
      </trkpt>
      <trkpt lat="41.87481" lon="0.8866">
        <ele>360.12</ele>
        <time>2021-07-22T08:03:29Z</time>
      </trkpt>
      <trkpt lat="41.8753" lon="0.88695">
        <ele>364.929</ele>
        <time>2021-07-22T08:03:40Z</time>
      </trkpt>
      <trkpt lat="41.87529" lon="0.88839">
        <ele>373.949</ele>
        <time>2021-07-22T08:03:51Z</time>
      </trkpt>
      <trkpt lat="41.87483" lon="0.88912">
        <ele>378.5393</ele>
        <time>2021-07-22T08:04:02Z</time>
      </trkpt>
      <trkpt lat="41.8744" lon="0.88978">
        <ele>384.9398</ele>
        <time>2021-07-22T08:04:13Z</time>
      </trkpt>
      <trkpt lat="41.87461" lon="0.89099">
        <ele>395.5572</ele>
        <time>2021-07-22T08:04:24Z</time>
      </trkpt>
      <trkpt lat="41.87493" lon="0.89196">
        <ele>402.9451</ele>
        <time>2021-07-22T08:04:35Z</time>
      </trkpt>
      <trkpt lat="41.87508" lon="0.8927">
        <ele>409.1401</ele>
        <time>2021-07-22T08:04:46Z</time>
      </trkpt>
      <trkpt lat="41.87482" lon="0.8939">
        <ele>414.4464</ele>
        <time>2021-07-22T08:04:57Z</time>
      </trkpt>
      <trkpt lat="41.87576" lon="0.89478">
        <ele>422.0386</ele>
        <time>2021-07-22T08:05:08Z</time>
      </trkpt>
      <trkpt lat="41.87655" lon="0.89566">
        <ele>429.803</ele>
        <time>2021-07-22T08:05:19Z</time>
      </trkpt>
      <trkpt lat="41.87723" lon="0.89473">
        <ele>434.474</ele>
        <time>2021-07-22T08:05:30Z</time>
      </trkpt>
      <trkpt lat="41.87816" lon="0.89489">
        <ele>432.6475</ele>
        <time>2021-07-22T08:05:41Z</time>
      </trkpt>
      <trkpt lat="41.87885" lon="0.89502">
        <ele>437.5702</ele>
        <time>2021-07-22T08:05:52Z</time>
      </trkpt>
      <trkpt lat="41.87888" lon="0.89563">
        <ele>439.8731</ele>
        <time>2021-07-22T08:06:03Z</time>
      </trkpt>
      <trkpt lat="41.87915" lon="0.89729">
        <ele>448.469</ele>
        <time>2021-07-22T08:06:14Z</time>
      </trkpt>
      <trkpt lat="41.87946" lon="0.89885">
        <ele>448.0074</ele>
        <time>2021-07-22T08:06:25Z</time>
      </trkpt>
      <trkpt lat="41.88001" lon="0.90002">
        <ele>457.3131</ele>
        <time>2021-07-22T08:06:36Z</time>
      </trkpt>
      <trkpt lat="41.88003" lon="0.90091">
        <ele>459.7786</ele>
        <time>2021-07-22T08:06:47Z</time>
      </trkpt>
      <trkpt lat="41.88028" lon="0.90137">
        <ele>447.0324</ele>
        <time>2021-07-22T08:06:58Z</time>
      </trkpt>
      <trkpt lat="41.8805" lon="0.90217">
        <ele>440.7811</ele>
        <time>2021-07-22T08:07:09Z</time>
      </trkpt>
      <trkpt lat="41.88102" lon="0.90318">
        <ele>442.4043</ele>
        <time>2021-07-22T08:07:20Z</time>
      </trkpt>
      <trkpt lat="41.88135" lon="0.90443">
        <ele>448.9062</ele>
        <time>2021-07-22T08:07:31Z</time>
      </trkpt>
      <trkpt lat="41.88095" lon="0.90551">
        <ele>454.4558</ele>
        <time>2021-07-22T08:07:42Z</time>
      </trkpt>
      <trkpt lat="41.88138" lon="0.90615">
        <ele>458.8378</ele>
        <time>2021-07-22T08:07:53Z</time>
      </trkpt>
      <trkpt lat="41.88144" lon="0.90665">
        <ele>466.8832</ele>
        <time>2021-07-22T08:08:04Z</time>
      </trkpt>
      <trkpt lat="41.88062" lon="0.90765">
        <ele>475.0518</ele>
        <time>2021-07-22T08:08:15Z</time>
      </trkpt>
      <trkpt lat="41.87996" lon="0.90826">
        <ele>477.362</ele>
        <time>2021-07-22T08:08:26Z</time>
      </trkpt>
      <trkpt lat="41.87973" lon="0.90729">
        <ele>478.5422</ele>
        <time>2021-07-22T08:08:37Z</time>
      </trkpt>
      <trkpt lat="41.87979" lon="0.90695">
        <ele>472.1593</ele>
        <time>2021-07-22T08:08:48Z</time>
      </trkpt>
      <trkpt lat="41.87922" lon="0.90779">
        <ele>476.7773</ele>
        <time>2021-07-22T08:08:59Z</time>
      </trkpt>
      <trkpt lat="41.87955" lon="0.90905">
        <ele>485.0325</ele>
        <time>2021-07-22T08:09:10Z</time>
      </trkpt>
      <trkpt lat="41.87994" lon="0.91048">
        <ele>498.7876</ele>
        <time>2021-07-22T08:09:21Z</time>
      </trkpt>
      <trkpt lat="41.88084" lon="0.91126">
        <ele>503.2986</ele>
        <time>2021-07-22T08:09:32Z</time>
      </trkpt>
      <trkpt lat="41.88125" lon="0.91256">
        <ele>513.6975</ele>
        <time>2021-07-22T08:09:43Z</time>
      </trkpt>
      <trkpt lat="41.88154" lon="0.91293">
        <ele>512.7188</ele>
        <time>2021-07-22T08:09:54Z</time>
      </trkpt>
      <trkpt lat="41.88207" lon="0.91186">
        <ele>518.3775</ele>
        <time>2021-07-22T08:10:05Z</time>
      </trkpt>
      <trkpt lat="41.88198" lon="0.91272">
        <ele>524.5484</ele>
        <time>2021-07-22T08:10:16Z</time>
      </trkpt>
      <trkpt lat="41.88212" lon="0.91423">
        <ele>526.0603</ele>
        <time>2021-07-22T08:10:27Z</time>
      </trkpt>
      <trkpt lat="41.88258" lon="0.9155">
        <ele>524.4088</ele>
        <time>2021-07-22T08:10:38Z</time>
      </trkpt>
      <trkpt lat="41.88288" lon="0.91618">
        <ele>509.2297</ele>
        <time>2021-07-22T08:10:49Z</time>
      </trkpt>
      <trkpt lat="41.88254" lon="0.91759">
        <ele>549.7641</ele>
        <time>2021-07-22T08:11:00Z</time>
      </trkpt>
      <trkpt lat="41.88328" lon="0.91872">
        <ele>567.8784</ele>
        <time>2021-07-22T08:11:11Z</time>
      </trkpt>
      <trkpt lat="41.88392" lon="0.91992">
        <ele>570.4554</ele>
        <time>2021-07-22T08:11:22Z</time>
      </trkpt>
      <trkpt lat="41.88474" lon="0.92087">
        <ele>563.875</ele>
        <time>2021-07-22T08:11:33Z</time>
      </trkpt>
      <trkpt lat="41.88557" lon="0.92099">
        <ele>575.2201</ele>
        <time>2021-07-22T08:11:44Z</time>
      </trkpt>
      <trkpt lat="41.88646" lon="0.92197">
        <ele>621.7241</ele>
        <time>2021-07-22T08:11:55Z</time>
      </trkpt>
      <trkpt lat="41.88715" lon="0.92296">
        <ele>635.5519</ele>
        <time>2021-07-22T08:12:06Z</time>
      </trkpt>
      <trkpt lat="41.8877" lon="0.924">
        <ele>635.0582</ele>
        <time>2021-07-22T08:12:17Z</time>
      </trkpt>
      <trkpt lat="41.88839" lon="0.92553">
        <ele>634.5076</ele>
        <time>2021-07-22T08:12:28Z</time>
      </trkpt>
      <trkpt lat="41.88895" lon="0.92636">
        <ele>633.4133</ele>
        <time>2021-07-22T08:12:39Z</time>
      </trkpt>
      <trkpt lat="41.88991" lon="0.92668">
        <ele>627.9683</ele>
        <time>2021-07-22T08:12:50Z</time>
      </trkpt>
      <trkpt lat="41.89084" lon="0.92729">
        <ele>613.7</ele>
        <time>2021-07-22T08:13:01Z</time>
      </trkpt>
      <trkpt lat="41.89183" lon="0.92795">
        <ele>601.415</ele>
        <time>2021-07-22T08:13:12Z</time>
      </trkpt>
      <trkpt lat="41.89286" lon="0.92835">
        <ele>593.7977</ele>
        <time>2021-07-22T08:13:23Z</time>
      </trkpt>
      <trkpt lat="41.89306" lon="0.92852">
        <ele>588.6383</ele>
        <time>2021-07-22T08:13:34Z</time>
      </trkpt>
      <trkpt lat="41.8921" lon="0.92844">
        <ele>580.0266</ele>
        <time>2021-07-22T08:13:45Z</time>
      </trkpt>
      <trkpt lat="41.89114" lon="0.92863">
        <ele>568.6792</ele>
        <time>2021-07-22T08:13:56Z</time>
      </trkpt>
      <trkpt lat="41.89152" lon="0.92972">
        <ele>565.4989</ele>
        <time>2021-07-22T08:14:07Z</time>
      </trkpt>
      <trkpt lat="41.89249" lon="0.93078">
        <ele>558.1812</ele>
        <time>2021-07-22T08:14:18Z</time>
      </trkpt>
      <trkpt lat="41.89335" lon="0.93181">
        <ele>546.6725</ele>
        <time>2021-07-22T08:14:29Z</time>
      </trkpt>
      <trkpt lat="41.89362" lon="0.93186">
        <ele>545.5829</ele>
        <time>2021-07-22T08:14:40Z</time>
      </trkpt>
      <trkpt lat="41.89307" lon="0.93071">
        <ele>535.2494</ele>
        <time>2021-07-22T08:14:51Z</time>
      </trkpt>
      <trkpt lat="41.8934" lon="0.9303">
        <ele>533.7394</ele>
        <time>2021-07-22T08:15:02Z</time>
      </trkpt>
      <trkpt lat="41.89443" lon="0.93067">
        <ele>521.891</ele>
        <time>2021-07-22T08:15:13Z</time>
      </trkpt>
      <trkpt lat="41.89536" lon="0.93118">
        <ele>513.9638</ele>
        <time>2021-07-22T08:15:24Z</time>
      </trkpt>
      <trkpt lat="41.89628" lon="0.93155">
        <ele>511.0794</ele>
        <time>2021-07-22T08:15:35Z</time>
      </trkpt>
      <trkpt lat="41.89721" lon="0.93205">
        <ele>500.4726</ele>
        <time>2021-07-22T08:15:46Z</time>
      </trkpt>
      <trkpt lat="41.89811" lon="0.93227">
        <ele>492.1628</ele>
        <time>2021-07-22T08:15:57Z</time>
      </trkpt>
      <trkpt lat="41.89889" lon="0.93237">
        <ele>479.3326</ele>
        <time>2021-07-22T08:16:08Z</time>
      </trkpt>
      <trkpt lat="41.89982" lon="0.93262">
        <ele>475.7483</ele>
        <time>2021-07-22T08:16:19Z</time>
      </trkpt>
      <trkpt lat="41.90056" lon="0.93282">
        <ele>464.453</ele>
        <time>2021-07-22T08:16:30Z</time>
      </trkpt>
      <trkpt lat="41.89991" lon="0.93292">
        <ele>460.3046</ele>
        <time>2021-07-22T08:16:41Z</time>
      </trkpt>
      <trkpt lat="41.89889" lon="0.93317">
        <ele>455.484</ele>
        <time>2021-07-22T08:16:52Z</time>
      </trkpt>
      <trkpt lat="41.89794" lon="0.9338">
        <ele>450.8912</ele>
        <time>2021-07-22T08:17:03Z</time>
      </trkpt>
      <trkpt lat="41.89784" lon="0.93445">
        <ele>443.1683</ele>
        <time>2021-07-22T08:17:14Z</time>
      </trkpt>
      <trkpt lat="41.89849" lon="0.93477">
        <ele>426.7186</ele>
        <time>2021-07-22T08:17:25Z</time>
      </trkpt>
      <trkpt lat="41.89944" lon="0.9346">
        <ele>404.296</ele>
        <time>2021-07-22T08:17:36Z</time>
      </trkpt>
      <trkpt lat="41.90043" lon="0.93501">
        <ele>398.7143</ele>
        <time>2021-07-22T08:17:47Z</time>
      </trkpt>
      <trkpt lat="41.90116" lon="0.93572">
        <ele>389.5044</ele>
        <time>2021-07-22T08:17:58Z</time>
      </trkpt>
      <trkpt lat="41.90159" lon="0.9364">
        <ele>378.7254</ele>
        <time>2021-07-22T08:18:09Z</time>
      </trkpt>
      <trkpt lat="41.90264" lon="0.93599">
        <ele>393.3594</ele>
        <time>2021-07-22T08:18:20Z</time>
      </trkpt>
      <trkpt lat="41.90356" lon="0.93613">
        <ele>403.1785</ele>
        <time>2021-07-22T08:18:31Z</time>
      </trkpt>
      <trkpt lat="41.90441" lon="0.93702">
        <ele>395.7783</ele>
        <time>2021-07-22T08:18:42Z</time>
      </trkpt>
      <trkpt lat="41.90508" lon="0.93773">
        <ele>395.3692</ele>
        <time>2021-07-22T08:18:53Z</time>
      </trkpt>
      <trkpt lat="41.90503" lon="0.93737">
        <ele>398.5653</ele>
        <time>2021-07-22T08:19:04Z</time>
      </trkpt>
      <trkpt lat="41.90467" lon="0.93616">
        <ele>398.9954</ele>
        <time>2021-07-22T08:19:15Z</time>
      </trkpt>
      <trkpt lat="41.90482" lon="0.93607">
        <ele>398.0379</ele>
        <time>2021-07-22T08:19:26Z</time>
      </trkpt>
      <trkpt lat="41.90535" lon="0.93681">
        <ele>390.7472</ele>
        <time>2021-07-22T08:19:37Z</time>
      </trkpt>
      <trkpt lat="41.90588" lon="0.9376">
        <ele>385.4022</ele>
        <time>2021-07-22T08:19:48Z</time>
      </trkpt>
      <trkpt lat="41.90678" lon="0.93818">
        <ele>366.4785</ele>
        <time>2021-07-22T08:19:59Z</time>
      </trkpt>
      <trkpt lat="41.90735" lon="0.9384">
        <ele>354.2687</ele>
        <time>2021-07-22T08:20:10Z</time>
      </trkpt>
      <trkpt lat="41.90674" lon="0.93773">
        <ele>339.5582</ele>
        <time>2021-07-22T08:20:21Z</time>
      </trkpt>
      <trkpt lat="41.90668" lon="0.93701">
        <ele>325.6498</ele>
        <time>2021-07-22T08:20:32Z</time>
      </trkpt>
      <trkpt lat="41.90721" lon="0.93778">
        <ele>324.2034</ele>
        <time>2021-07-22T08:20:43Z</time>
      </trkpt>
      <trkpt lat="41.90758" lon="0.93787">
        <ele>320.4295</ele>
        <time>2021-07-22T08:20:54Z</time>
      </trkpt>
      <trkpt lat="41.9072" lon="0.93693">
        <ele>315.1931</ele>
        <time>2021-07-22T08:21:05Z</time>
      </trkpt>
      <trkpt lat="41.9072" lon="0.93596">
        <ele>305.1151</ele>
        <time>2021-07-22T08:21:16Z</time>
      </trkpt>
      <trkpt lat="41.90724" lon="0.93577">
        <ele>302.0518</ele>
        <time>2021-07-22T08:21:27Z</time>
      </trkpt>
      <trkpt lat="41.90761" lon="0.93663">
        <ele>298.0411</ele>
        <time>2021-07-22T08:21:38Z</time>
      </trkpt>
      <trkpt lat="41.90818" lon="0.93717">
        <ele>292.7353</ele>
        <time>2021-07-22T08:21:49Z</time>
      </trkpt>
      <trkpt lat="41.90875" lon="0.93812">
        <ele>286.9322</ele>
        <time>2021-07-22T08:22:00Z</time>
      </trkpt>
      <trkpt lat="41.90906" lon="0.9394">
        <ele>283.4502</ele>
        <time>2021-07-22T08:22:11Z</time>
      </trkpt>
      <trkpt lat="41.90928" lon="0.94134">
        <ele>288.3688</ele>
        <time>2021-07-22T08:22:22Z</time>
      </trkpt>
      <trkpt lat="41.90935" lon="0.94243">
        <ele>291.0104</ele>
        <time>2021-07-22T08:22:33Z</time>
      </trkpt>
      <trkpt lat="41.90991" lon="0.94352">
        <ele>294.1284</ele>
        <time>2021-07-22T08:22:44Z</time>
      </trkpt>
      <trkpt lat="41.91079" lon="0.94446">
        <ele>280.7444</ele>
        <time>2021-07-22T08:22:55Z</time>
      </trkpt>
      <trkpt lat="41.91152" lon="0.94542">
        <ele>280.5907</ele>
        <time>2021-07-22T08:23:06Z</time>
      </trkpt>
      <trkpt lat="41.91197" lon="0.94659">
        <ele>284.2129</ele>
        <time>2021-07-22T08:23:17Z</time>
      </trkpt>
      <trkpt lat="41.912" lon="0.94735">
        <ele>289.8693</ele>
        <time>2021-07-22T08:23:28Z</time>
      </trkpt>
      <trkpt lat="41.9121" lon="0.94859">
        <ele>288.0839</ele>
        <time>2021-07-22T08:23:39Z</time>
      </trkpt>
      <trkpt lat="41.91166" lon="0.95007">
        <ele>280.0468</ele>
        <time>2021-07-22T08:23:50Z</time>
      </trkpt>
      <trkpt lat="41.91095" lon="0.95193">
        <ele>278.047</ele>
        <time>2021-07-22T08:24:01Z</time>
      </trkpt>
      <trkpt lat="41.9112" lon="0.95373">
        <ele>282.4089</ele>
        <time>2021-07-22T08:24:12Z</time>
      </trkpt>
      <trkpt lat="41.91165" lon="0.95559">
        <ele>289.7304</ele>
        <time>2021-07-22T08:24:23Z</time>
      </trkpt>
      <trkpt lat="41.91196" lon="0.9564">
        <ele>285.8697</ele>
        <time>2021-07-22T08:24:34Z</time>
      </trkpt>
      <trkpt lat="41.91273" lon="0.95673">
        <ele>287.3308</ele>
        <time>2021-07-22T08:24:45Z</time>
      </trkpt>
      <trkpt lat="41.91226" lon="0.95853">
        <ele>283.5543</ele>
        <time>2021-07-22T08:24:56Z</time>
      </trkpt>
      <trkpt lat="41.9117" lon="0.95988">
        <ele>287.1604</ele>
        <time>2021-07-22T08:25:07Z</time>
      </trkpt>
      <trkpt lat="41.91161" lon="0.96141">
        <ele>286.1809</ele>
        <time>2021-07-22T08:25:18Z</time>
      </trkpt>
      <trkpt lat="41.91171" lon="0.96269">
        <ele>284.6874</ele>
        <time>2021-07-22T08:25:29Z</time>
      </trkpt>
      <trkpt lat="41.91157" lon="0.96487">
        <ele>283.1059</ele>
        <time>2021-07-22T08:25:40Z</time>
      </trkpt>
      <trkpt lat="41.91169" lon="0.96731">
        <ele>283.4958</ele>
        <time>2021-07-22T08:25:51Z</time>
      </trkpt>
      <trkpt lat="41.91024" lon="0.96885">
        <ele>280.4252</ele>
        <time>2021-07-22T08:26:02Z</time>
      </trkpt>
      <trkpt lat="41.90925" lon="0.97056">
        <ele>281.2517</ele>
        <time>2021-07-22T08:26:13Z</time>
      </trkpt>
      <trkpt lat="41.90935" lon="0.9709">
        <ele>288.9312</ele>
        <time>2021-07-22T08:26:24Z</time>
      </trkpt>
      <trkpt lat="41.90905" lon="0.97232">
        <ele>305.9105</ele>
        <time>2021-07-22T08:26:35Z</time>
      </trkpt>
      <trkpt lat="41.90946" lon="0.97389">
        <ele>313.4975</ele>
        <time>2021-07-22T08:26:46Z</time>
      </trkpt>
      <trkpt lat="41.90971" lon="0.97507">
        <ele>312.8293</ele>
        <time>2021-07-22T08:26:57Z</time>
      </trkpt>
      <trkpt lat="41.9103" lon="0.97552">
        <ele>320.5917</ele>
        <time>2021-07-22T08:27:08Z</time>
      </trkpt>
      <trkpt lat="41.9109" lon="0.97562">
        <ele>332.5741</ele>
        <time>2021-07-22T08:27:19Z</time>
      </trkpt>
      <trkpt lat="41.91164" lon="0.97665">
        <ele>340.6231</ele>
        <time>2021-07-22T08:27:30Z</time>
      </trkpt>
      <trkpt lat="41.91129" lon="0.97721">
        <ele>348.4453</ele>
        <time>2021-07-22T08:27:41Z</time>
      </trkpt>
      <trkpt lat="41.91205" lon="0.97736">
        <ele>360.7186</ele>
        <time>2021-07-22T08:27:52Z</time>
      </trkpt>
      <trkpt lat="41.91334" lon="0.97697">
        <ele>375.0898</ele>
        <time>2021-07-22T08:28:03Z</time>
      </trkpt>
      <trkpt lat="41.91448" lon="0.97834">
        <ele>379.5384</ele>
        <time>2021-07-22T08:28:14Z</time>
      </trkpt>
      <trkpt lat="41.91506" lon="0.98041">
        <ele>380.2878</ele>
        <time>2021-07-22T08:28:25Z</time>
      </trkpt>
      <trkpt lat="41.91541" lon="0.9817">
        <ele>397.7488</ele>
        <time>2021-07-22T08:28:36Z</time>
      </trkpt>
      <trkpt lat="41.91507" lon="0.98236">
        <ele>407.9087</ele>
        <time>2021-07-22T08:28:47Z</time>
      </trkpt>
      <trkpt lat="41.91655" lon="0.98247">
        <ele>427.9492</ele>
        <time>2021-07-22T08:28:58Z</time>
      </trkpt>
      <trkpt lat="41.91764" lon="0.98368">
        <ele>447.8993</ele>
        <time>2021-07-22T08:29:09Z</time>
      </trkpt>
      <trkpt lat="41.91908" lon="0.98426">
        <ele>466.5274</ele>
        <time>2021-07-22T08:29:20Z</time>
      </trkpt>
      <trkpt lat="41.9203" lon="0.98506">
        <ele>480.3472</ele>
        <time>2021-07-22T08:29:31Z</time>
      </trkpt>
      <trkpt lat="41.92075" lon="0.98555">
        <ele>487.6292</ele>
        <time>2021-07-22T08:29:42Z</time>
      </trkpt>
      <trkpt lat="41.92005" lon="0.98615">
        <ele>499.9372</ele>
        <time>2021-07-22T08:29:53Z</time>
      </trkpt>
      <trkpt lat="41.92041" lon="0.98622">
        <ele>506.2465</ele>
        <time>2021-07-22T08:30:04Z</time>
      </trkpt>
      <trkpt lat="41.91937" lon="0.98682">
        <ele>517.5662</ele>
        <time>2021-07-22T08:30:15Z</time>
      </trkpt>
      <trkpt lat="41.91868" lon="0.98724">
        <ele>526.9471</ele>
        <time>2021-07-22T08:30:26Z</time>
      </trkpt>
      <trkpt lat="41.91976" lon="0.98754">
        <ele>533.5808</ele>
        <time>2021-07-22T08:30:37Z</time>
      </trkpt>
      <trkpt lat="41.9209" lon="0.98859">
        <ele>546.5067</ele>
        <time>2021-07-22T08:30:48Z</time>
      </trkpt>
      <trkpt lat="41.92165" lon="0.98981">
        <ele>544.1323</ele>
        <time>2021-07-22T08:30:59Z</time>
      </trkpt>
      <trkpt lat="41.92248" lon="0.99074">
        <ele>536.891</ele>
        <time>2021-07-22T08:31:10Z</time>
      </trkpt>
      <trkpt lat="41.92373" lon="0.99074">
        <ele>525.5015</ele>
        <time>2021-07-22T08:31:21Z</time>
      </trkpt>
      <trkpt lat="41.92473" lon="0.99084">
        <ele>520.3933</ele>
        <time>2021-07-22T08:31:32Z</time>
      </trkpt>
      <trkpt lat="41.92572" lon="0.98983">
        <ele>538.3243</ele>
        <time>2021-07-22T08:31:43Z</time>
      </trkpt>
      <trkpt lat="41.92654" lon="0.98986">
        <ele>550.1723</ele>
        <time>2021-07-22T08:31:54Z</time>
      </trkpt>
      <trkpt lat="41.92666" lon="0.99">
        <ele>556.1511</ele>
        <time>2021-07-22T08:32:05Z</time>
      </trkpt>
      <trkpt lat="41.92672" lon="0.99117">
        <ele>570.4586</ele>
        <time>2021-07-22T08:32:16Z</time>
      </trkpt>
      <trkpt lat="41.92717" lon="0.99052">
        <ele>577.5756</ele>
        <time>2021-07-22T08:32:27Z</time>
      </trkpt>
      <trkpt lat="41.92795" lon="0.99145">
        <ele>591.2456</ele>
        <time>2021-07-22T08:32:38Z</time>
      </trkpt>
      <trkpt lat="41.92852" lon="0.99097">
        <ele>598.4949</ele>
        <time>2021-07-22T08:32:49Z</time>
      </trkpt>
      <trkpt lat="41.92882" lon="0.9898">
        <ele>606.6603</ele>
        <time>2021-07-22T08:33:00Z</time>
      </trkpt>
      <trkpt lat="41.92923" lon="0.9893">
        <ele>611.0675</ele>
        <time>2021-07-22T08:33:11Z</time>
      </trkpt>
      <trkpt lat="41.92988" lon="0.99042">
        <ele>617.1933</ele>
        <time>2021-07-22T08:33:22Z</time>
      </trkpt>
      <trkpt lat="41.93111" lon="0.98998">
        <ele>617.7939</ele>
        <time>2021-07-22T08:33:33Z</time>
      </trkpt>
      <trkpt lat="41.93183" lon="0.98934">
        <ele>617.5293</ele>
        <time>2021-07-22T08:33:44Z</time>
      </trkpt>
      <trkpt lat="41.93295" lon="0.98955">
        <ele>616.0196</ele>
        <time>2021-07-22T08:33:55Z</time>
      </trkpt>
      <trkpt lat="41.93411" lon="0.98927">
        <ele>615.6489</ele>
        <time>2021-07-22T08:34:06Z</time>
      </trkpt>
      <trkpt lat="41.93401" lon="0.98781">
        <ele>624.102</ele>
        <time>2021-07-22T08:34:17Z</time>
      </trkpt>
      <trkpt lat="41.93444" lon="0.98673">
        <ele>634.6375</ele>
        <time>2021-07-22T08:34:28Z</time>
      </trkpt>
      <trkpt lat="41.93552" lon="0.98682">
        <ele>628.0975</ele>
        <time>2021-07-22T08:34:39Z</time>
      </trkpt>
      <trkpt lat="41.93667" lon="0.98657">
        <ele>619.7219</ele>
        <time>2021-07-22T08:34:50Z</time>
      </trkpt>
      <trkpt lat="41.93737" lon="0.9858">
        <ele>639.1131</ele>
        <time>2021-07-22T08:35:01Z</time>
      </trkpt>
      <trkpt lat="41.93794" lon="0.9864">
        <ele>649.0658</ele>
        <time>2021-07-22T08:35:12Z</time>
      </trkpt>
      <trkpt lat="41.93897" lon="0.98685">
        <ele>652.431</ele>
        <time>2021-07-22T08:35:23Z</time>
      </trkpt>
      <trkpt lat="41.93986" lon="0.98724">
        <ele>666.1288</ele>
        <time>2021-07-22T08:35:34Z</time>
      </trkpt>
      <trkpt lat="41.94062" lon="0.98672">
        <ele>678.8879</ele>
        <time>2021-07-22T08:35:45Z</time>
      </trkpt>
      <trkpt lat="41.94162" lon="0.98768">
        <ele>689.4855</ele>
        <time>2021-07-22T08:35:56Z</time>
      </trkpt>
      <trkpt lat="41.94234" lon="0.98856">
        <ele>688.2921</ele>
        <time>2021-07-22T08:36:07Z</time>
      </trkpt>
      <trkpt lat="41.94322" lon="0.98881">
        <ele>696.518</ele>
        <time>2021-07-22T08:36:18Z</time>
      </trkpt>
      <trkpt lat="41.9446" lon="0.98938">
        <ele>718.6288</ele>
        <time>2021-07-22T08:36:29Z</time>
      </trkpt>
      <trkpt lat="41.9462" lon="0.99003">
        <ele>733.9417</ele>
        <time>2021-07-22T08:36:40Z</time>
      </trkpt>
      <trkpt lat="41.94723" lon="0.99072">
        <ele>746.6626</ele>
        <time>2021-07-22T08:36:51Z</time>
      </trkpt>
      <trkpt lat="41.9481" lon="0.99051">
        <ele>746.4686</ele>
        <time>2021-07-22T08:37:02Z</time>
      </trkpt>
      <trkpt lat="41.94888" lon="0.99078">
        <ele>737.3011</ele>
        <time>2021-07-22T08:37:13Z</time>
      </trkpt>
      <trkpt lat="41.94993" lon="0.99179">
        <ele>708.4447</ele>
        <time>2021-07-22T08:37:24Z</time>
      </trkpt>
      <trkpt lat="41.95096" lon="0.9919">
        <ele>694.9755</ele>
        <time>2021-07-22T08:37:35Z</time>
      </trkpt>
      <trkpt lat="41.95163" lon="0.99236">
        <ele>681.2453</ele>
        <time>2021-07-22T08:37:46Z</time>
      </trkpt>
      <trkpt lat="41.95268" lon="0.99266">
        <ele>689.8383</ele>
        <time>2021-07-22T08:37:57Z</time>
      </trkpt>
      <trkpt lat="41.95352" lon="0.99298">
        <ele>681.6707</ele>
        <time>2021-07-22T08:38:08Z</time>
      </trkpt>
      <trkpt lat="41.95436" lon="0.99297">
        <ele>663.1398</ele>
        <time>2021-07-22T08:38:19Z</time>
      </trkpt>
      <trkpt lat="41.95494" lon="0.99323">
        <ele>658.5996</ele>
        <time>2021-07-22T08:38:30Z</time>
      </trkpt>
      <trkpt lat="41.95519" lon="0.99339">
        <ele>657.6959</ele>
        <time>2021-07-22T08:38:41Z</time>
      </trkpt>
      <trkpt lat="41.95481" lon="0.9939">
        <ele>662.5149</ele>
        <time>2021-07-22T08:38:52Z</time>
      </trkpt>
      <trkpt lat="41.95522" lon="0.99484">
        <ele>663.2364</ele>
        <time>2021-07-22T08:39:03Z</time>
      </trkpt>
      <trkpt lat="41.9554" lon="0.99571">
        <ele>653.3393</ele>
        <time>2021-07-22T08:39:14Z</time>
      </trkpt>
      <trkpt lat="41.95544" lon="0.9965">
        <ele>630.7631</ele>
        <time>2021-07-22T08:39:25Z</time>
      </trkpt>
      <trkpt lat="41.95509" lon="0.99746">
        <ele>615.0113</ele>
        <time>2021-07-22T08:39:36Z</time>
      </trkpt>
      <trkpt lat="41.95509" lon="0.99751">
        <ele>615.8024</ele>
        <time>2021-07-22T08:39:49Z</time>
      </trkpt>
      <trkpt lat="41.95487" lon="0.99806">
        <ele>615.7405</ele>
        <time>2021-07-22T08:40:00Z</time>
      </trkpt>
      <trkpt lat="41.95464" lon="0.9994">
        <ele>597.4109</ele>
        <time>2021-07-22T08:40:11Z</time>
      </trkpt>
      <trkpt lat="41.95436" lon="1.00077">
        <ele>588.0374</ele>
        <time>2021-07-22T08:40:22Z</time>
      </trkpt>
      <trkpt lat="41.95462" lon="1.0014">
        <ele>582.1181</ele>
        <time>2021-07-22T08:40:33Z</time>
      </trkpt>
      <trkpt lat="41.95526" lon="1.00211">
        <ele>589.2202</ele>
        <time>2021-07-22T08:40:44Z</time>
      </trkpt>
      <trkpt lat="41.95619" lon="1.00287">
        <ele>606.4947</ele>
        <time>2021-07-22T08:40:55Z</time>
      </trkpt>
      <trkpt lat="41.95658" lon="1.00242">
        <ele>609.5238</ele>
        <time>2021-07-22T08:41:06Z</time>
      </trkpt>
      <trkpt lat="41.95678" lon="1.00126">
        <ele>614.5704</ele>
        <time>2021-07-22T08:41:17Z</time>
      </trkpt>
      <trkpt lat="41.95761" lon="1.0002">
        <ele>625.4665</ele>
        <time>2021-07-22T08:41:28Z</time>
      </trkpt>
      <trkpt lat="41.95868" lon="0.99942">
        <ele>632.9145</ele>
        <time>2021-07-22T08:41:39Z</time>
      </trkpt>
      <trkpt lat="41.95931" lon="0.9997">
        <ele>637.6235</ele>
        <time>2021-07-22T08:41:50Z</time>
      </trkpt>
      <trkpt lat="41.95865" lon="1.00005">
        <ele>648.5946</ele>
        <time>2021-07-22T08:42:01Z</time>
      </trkpt>
      <trkpt lat="41.95905" lon="1.00069">
        <ele>652.843</ele>
        <time>2021-07-22T08:42:12Z</time>
      </trkpt>
      <trkpt lat="41.95943" lon="1.00135">
        <ele>659.7206</ele>
        <time>2021-07-22T08:42:23Z</time>
      </trkpt>
      <trkpt lat="41.96026" lon="1.00091">
        <ele>670.8528</ele>
        <time>2021-07-22T08:42:34Z</time>
      </trkpt>
      <trkpt lat="41.9613" lon="0.99983">
        <ele>685.0128</ele>
        <time>2021-07-22T08:42:45Z</time>
      </trkpt>
      <trkpt lat="41.96225" lon="0.99901">
        <ele>685.3751</ele>
        <time>2021-07-22T08:42:56Z</time>
      </trkpt>
      <trkpt lat="41.96303" lon="0.99823">
        <ele>679.5458</ele>
        <time>2021-07-22T08:43:07Z</time>
      </trkpt>
      <trkpt lat="41.96361" lon="0.99712">
        <ele>691.7409</ele>
        <time>2021-07-22T08:43:18Z</time>
      </trkpt>
      <trkpt lat="41.96446" lon="0.99627">
        <ele>698.44</ele>
        <time>2021-07-22T08:43:29Z</time>
      </trkpt>
      <trkpt lat="41.96523" lon="0.99543">
        <ele>703.5508</ele>
        <time>2021-07-22T08:43:40Z</time>
      </trkpt>
      <trkpt lat="41.96618" lon="0.99403">
        <ele>712.5767</ele>
        <time>2021-07-22T08:43:51Z</time>
      </trkpt>
      <trkpt lat="41.96722" lon="0.99362">
        <ele>713.9056</ele>
        <time>2021-07-22T08:44:02Z</time>
      </trkpt>
      <trkpt lat="41.96733" lon="0.99247">
        <ele>722.6388</ele>
        <time>2021-07-22T08:44:13Z</time>
      </trkpt>
      <trkpt lat="41.96802" lon="0.99156">
        <ele>725.5986</ele>
        <time>2021-07-22T08:44:24Z</time>
      </trkpt>
      <trkpt lat="41.96861" lon="0.99043">
        <ele>719.8839</ele>
        <time>2021-07-22T08:44:36Z</time>
      </trkpt>
      <trkpt lat="41.96866" lon="0.98931">
        <ele>716.0754</ele>
        <time>2021-07-22T08:44:47Z</time>
      </trkpt>
      <trkpt lat="41.9694" lon="0.98794">
        <ele>721.5358</ele>
        <time>2021-07-22T08:44:58Z</time>
      </trkpt>
      <trkpt lat="41.97016" lon="0.98678">
        <ele>719.62</ele>
        <time>2021-07-22T08:45:09Z</time>
      </trkpt>
      <trkpt lat="41.97048" lon="0.98587">
        <ele>725.7261</ele>
        <time>2021-07-22T08:45:20Z</time>
      </trkpt>
      <trkpt lat="41.97149" lon="0.985">
        <ele>723.3915</ele>
        <time>2021-07-22T08:45:31Z</time>
      </trkpt>
      <trkpt lat="41.97222" lon="0.98377">
        <ele>727.6711</ele>
        <time>2021-07-22T08:45:42Z</time>
      </trkpt>
      <trkpt lat="41.97348" lon="0.98213">
        <ele>737.2985</ele>
        <time>2021-07-22T08:45:53Z</time>
      </trkpt>
      <trkpt lat="41.97489" lon="0.98068">
        <ele>745.8456</ele>
        <time>2021-07-22T08:46:04Z</time>
      </trkpt>
      <trkpt lat="41.97557" lon="0.97943">
        <ele>751.4157</ele>
        <time>2021-07-22T08:46:15Z</time>
      </trkpt>
      <trkpt lat="41.97604" lon="0.97859">
        <ele>761.4433</ele>
        <time>2021-07-22T08:46:26Z</time>
      </trkpt>
      <trkpt lat="41.97625" lon="0.97791">
        <ele>782.8694</ele>
        <time>2021-07-22T08:46:37Z</time>
      </trkpt>
      <trkpt lat="41.97666" lon="0.97885">
        <ele>802.7171</ele>
        <time>2021-07-22T08:46:48Z</time>
      </trkpt>
      <trkpt lat="41.97722" lon="0.98033">
        <ele>815.3901</ele>
        <time>2021-07-22T08:46:59Z</time>
      </trkpt>
      <trkpt lat="41.97743" lon="0.98158">
        <ele>816.1224</ele>
        <time>2021-07-22T08:47:10Z</time>
      </trkpt>
      <trkpt lat="41.97791" lon="0.98215">
        <ele>808.2816</ele>
        <time>2021-07-22T08:47:21Z</time>
      </trkpt>
      <trkpt lat="41.97861" lon="0.9819">
        <ele>799.2289</ele>
        <time>2021-07-22T08:47:32Z</time>
      </trkpt>
      <trkpt lat="41.97895" lon="0.98271">
        <ele>799.8613</ele>
        <time>2021-07-22T08:47:43Z</time>
      </trkpt>
      <trkpt lat="41.9804" lon="0.98327">
        <ele>811.6751</ele>
        <time>2021-07-22T08:47:54Z</time>
      </trkpt>
      <trkpt lat="41.9822" lon="0.98378">
        <ele>823.9035</ele>
        <time>2021-07-22T08:48:05Z</time>
      </trkpt>
      <trkpt lat="41.98293" lon="0.98409">
        <ele>834.8877</ele>
        <time>2021-07-22T08:48:16Z</time>
      </trkpt>
      <trkpt lat="41.98302" lon="0.98451">
        <ele>836.7167</ele>
        <time>2021-07-22T08:48:27Z</time>
      </trkpt>
      <trkpt lat="41.98302" lon="0.9846">
        <ele>836.9446</ele>
        <time>2021-07-22T08:48:41Z</time>
      </trkpt>
      <trkpt lat="41.98243" lon="0.98583">
        <ele>829.2285</ele>
        <time>2021-07-22T08:48:52Z</time>
      </trkpt>
      <trkpt lat="41.98177" lon="0.98725">
        <ele>804.3067</ele>
        <time>2021-07-22T08:49:03Z</time>
      </trkpt>
      <trkpt lat="41.98121" lon="0.98878">
        <ele>778.9596</ele>
        <time>2021-07-22T08:49:14Z</time>
      </trkpt>
      <trkpt lat="41.98069" lon="0.99001">
        <ele>764.2202</ele>
        <time>2021-07-22T08:49:25Z</time>
      </trkpt>
      <trkpt lat="41.98115" lon="0.99153">
        <ele>756.2154</ele>
        <time>2021-07-22T08:49:36Z</time>
      </trkpt>
      <trkpt lat="41.98111" lon="0.99226">
        <ele>742.7827</ele>
        <time>2021-07-22T08:49:47Z</time>
      </trkpt>
      <trkpt lat="41.9819" lon="0.99203">
        <ele>742.8176</ele>
        <time>2021-07-22T08:49:58Z</time>
      </trkpt>
      <trkpt lat="41.98192" lon="0.99065">
        <ele>738.3286</ele>
        <time>2021-07-22T08:50:09Z</time>
      </trkpt>
      <trkpt lat="41.9825" lon="0.9898">
        <ele>717.9093</ele>
        <time>2021-07-22T08:50:20Z</time>
      </trkpt>
      <trkpt lat="41.98276" lon="0.99074">
        <ele>706.5079</ele>
        <time>2021-07-22T08:50:31Z</time>
      </trkpt>
      <trkpt lat="41.98365" lon="0.99072">
        <ele>700.9422</ele>
        <time>2021-07-22T08:50:42Z</time>
      </trkpt>
      <trkpt lat="41.98487" lon="0.99128">
        <ele>693.5389</ele>
        <time>2021-07-22T08:50:53Z</time>
      </trkpt>
      <trkpt lat="41.98549" lon="0.99183">
        <ele>684.2707</ele>
        <time>2021-07-22T08:51:04Z</time>
      </trkpt>
      <trkpt lat="41.98555" lon="0.99089">
        <ele>672.7388</ele>
        <time>2021-07-22T08:51:15Z</time>
      </trkpt>
      <trkpt lat="41.98631" lon="0.99149">
        <ele>664.9992</ele>
        <time>2021-07-22T08:51:26Z</time>
      </trkpt>
      <trkpt lat="41.98695" lon="0.99085">
        <ele>669.1121</ele>
        <time>2021-07-22T08:51:37Z</time>
      </trkpt>
      <trkpt lat="41.98762" lon="0.98965">
        <ele>662.3688</ele>
        <time>2021-07-22T08:51:48Z</time>
      </trkpt>
      <trkpt lat="41.9884" lon="0.98939">
        <ele>665.4678</ele>
        <time>2021-07-22T08:51:59Z</time>
      </trkpt>
      <trkpt lat="41.98933" lon="0.98828">
        <ele>664.5953</ele>
        <time>2021-07-22T08:52:10Z</time>
      </trkpt>
      <trkpt lat="41.98993" lon="0.98754">
        <ele>659.2085</ele>
        <time>2021-07-22T08:52:21Z</time>
      </trkpt>
      <trkpt lat="41.99027" lon="0.98718">
        <ele>657.9447</ele>
        <time>2021-07-22T08:52:32Z</time>
      </trkpt>
      <trkpt lat="41.99069" lon="0.98805">
        <ele>667.1358</ele>
        <time>2021-07-22T08:52:43Z</time>
      </trkpt>
      <trkpt lat="41.9916" lon="0.98828">
        <ele>680.2898</ele>
        <time>2021-07-22T08:52:54Z</time>
      </trkpt>
      <trkpt lat="41.99207" lon="0.98905">
        <ele>686.1838</ele>
        <time>2021-07-22T08:53:05Z</time>
      </trkpt>
      <trkpt lat="41.992" lon="0.98968">
        <ele>692.001</ele>
        <time>2021-07-22T08:53:16Z</time>
      </trkpt>
      <trkpt lat="41.99252" lon="0.99038">
        <ele>698.6011</ele>
        <time>2021-07-22T08:53:27Z</time>
      </trkpt>
      <trkpt lat="41.99274" lon="0.9909">
        <ele>699.9945</ele>
        <time>2021-07-22T08:53:38Z</time>
      </trkpt>
      <trkpt lat="41.99286" lon="0.99091">
        <ele>703.7235</ele>
        <time>2021-07-22T08:53:49Z</time>
      </trkpt>
      <trkpt lat="41.99283" lon="0.99087">
        <ele>702.2056</ele>
        <time>2021-07-22T08:54:00Z</time>
      </trkpt>
      <trkpt lat="41.99287" lon="0.99087">
        <ele>705.6209</ele>
        <time>2021-07-22T08:54:42Z</time>
      </trkpt>
      <trkpt lat="41.99286" lon="0.99087">
        <ele>705.553</ele>
        <time>2021-07-22T08:55:42Z</time>
      </trkpt>
      <trkpt lat="41.99284" lon="0.9909">
        <ele>704.7025</ele>
        <time>2021-07-22T08:56:41Z</time>
      </trkpt>
      <trkpt lat="41.99373" lon="0.99095">
        <ele>715.6163</ele>
        <time>2021-07-22T08:56:52Z</time>
      </trkpt>
      <trkpt lat="41.99449" lon="0.99058">
        <ele>724.0161</ele>
        <time>2021-07-22T08:57:03Z</time>
      </trkpt>
      <trkpt lat="41.99523" lon="0.98934">
        <ele>736.0602</ele>
        <time>2021-07-22T08:57:14Z</time>
      </trkpt>
      <trkpt lat="41.99577" lon="0.98804">
        <ele>746.9294</ele>
        <time>2021-07-22T08:57:25Z</time>
      </trkpt>
      <trkpt lat="41.9965" lon="0.98621">
        <ele>755.7072</ele>
        <time>2021-07-22T08:57:36Z</time>
      </trkpt>
      <trkpt lat="41.99678" lon="0.98523">
        <ele>762.3705</ele>
        <time>2021-07-22T08:57:47Z</time>
      </trkpt>
      <trkpt lat="41.99686" lon="0.98513">
        <ele>763.5067</ele>
        <time>2021-07-22T08:57:58Z</time>
      </trkpt>
      <trkpt lat="41.99692" lon="0.98532">
        <ele>769.1071</ele>
        <time>2021-07-22T08:58:09Z</time>
      </trkpt>
      <trkpt lat="41.99758" lon="0.98464">
        <ele>778.4459</ele>
        <time>2021-07-22T08:58:20Z</time>
      </trkpt>
      <trkpt lat="41.99794" lon="0.98365">
        <ele>784.1118</ele>
        <time>2021-07-22T08:58:31Z</time>
      </trkpt>
      <trkpt lat="41.99846" lon="0.98413">
        <ele>797.1768</ele>
        <time>2021-07-22T08:58:42Z</time>
      </trkpt>
      <trkpt lat="41.99897" lon="0.98508">
        <ele>809.8696</ele>
        <time>2021-07-22T08:58:53Z</time>
      </trkpt>
      <trkpt lat="41.99944" lon="0.98449">
        <ele>820.9366</ele>
        <time>2021-07-22T08:59:04Z</time>
      </trkpt>
      <trkpt lat="42.00013" lon="0.9831">
        <ele>834.6329</ele>
        <time>2021-07-22T08:59:15Z</time>
      </trkpt>
      <trkpt lat="42.00119" lon="0.98286">
        <ele>846.7355</ele>
        <time>2021-07-22T08:59:26Z</time>
      </trkpt>
      <trkpt lat="42.0023" lon="0.98245">
        <ele>861.6944</ele>
        <time>2021-07-22T08:59:37Z</time>
      </trkpt>
      <trkpt lat="42.00323" lon="0.98142">
        <ele>878.8878</ele>
        <time>2021-07-22T08:59:48Z</time>
      </trkpt>
      <trkpt lat="42.00379" lon="0.98012">
        <ele>898.2496</ele>
        <time>2021-07-22T08:59:59Z</time>
      </trkpt>
      <trkpt lat="42.00323" lon="0.97957">
        <ele>907.4721</ele>
        <time>2021-07-22T09:00:10Z</time>
      </trkpt>
      <trkpt lat="42.00266" lon="0.97824">
        <ele>921.9227</ele>
        <time>2021-07-22T09:00:21Z</time>
      </trkpt>
      <trkpt lat="42.0026" lon="0.97667">
        <ele>936.0553</ele>
        <time>2021-07-22T09:00:32Z</time>
      </trkpt>
      <trkpt lat="42.00228" lon="0.97588">
        <ele>944.9041</ele>
        <time>2021-07-22T09:00:43Z</time>
      </trkpt>
      <trkpt lat="42.00252" lon="0.97476">
        <ele>955.0864</ele>
        <time>2021-07-22T09:00:54Z</time>
      </trkpt>
      <trkpt lat="42.00272" lon="0.97559">
        <ele>965.1209</ele>
        <time>2021-07-22T09:01:05Z</time>
      </trkpt>
      <trkpt lat="42.00323" lon="0.97488">
        <ele>977.8198</ele>
        <time>2021-07-22T09:01:16Z</time>
      </trkpt>
      <trkpt lat="42.00334" lon="0.97339">
        <ele>998.8171</ele>
        <time>2021-07-22T09:01:27Z</time>
      </trkpt>
      <trkpt lat="42.00336" lon="0.97208">
        <ele>1012.544</ele>
        <time>2021-07-22T09:01:38Z</time>
      </trkpt>
      <trkpt lat="42.00381" lon="0.97109">
        <ele>1026.724</ele>
        <time>2021-07-22T09:01:49Z</time>
      </trkpt>
      <trkpt lat="42.00369" lon="0.96928">
        <ele>1041.866</ele>
        <time>2021-07-22T09:02:00Z</time>
      </trkpt>
      <trkpt lat="42.00409" lon="0.96817">
        <ele>1055.246</ele>
        <time>2021-07-22T09:02:11Z</time>
      </trkpt>
      <trkpt lat="42.00474" lon="0.96704">
        <ele>1066.851</ele>
        <time>2021-07-22T09:02:22Z</time>
      </trkpt>
      <trkpt lat="42.00541" lon="0.96591">
        <ele>1083.352</ele>
        <time>2021-07-22T09:02:33Z</time>
      </trkpt>
      <trkpt lat="42.00577" lon="0.9648">
        <ele>1093.133</ele>
        <time>2021-07-22T09:02:44Z</time>
      </trkpt>
      <trkpt lat="42.00608" lon="0.9636">
        <ele>1103.822</ele>
        <time>2021-07-22T09:02:55Z</time>
      </trkpt>
      <trkpt lat="42.00635" lon="0.9625">
        <ele>1111.312</ele>
        <time>2021-07-22T09:03:06Z</time>
      </trkpt>
      <trkpt lat="42.00649" lon="0.96214">
        <ele>1114.422</ele>
        <time>2021-07-22T09:03:17Z</time>
      </trkpt>
      <trkpt lat="42.00652" lon="0.96205">
        <ele>1115.461</ele>
        <time>2021-07-22T09:04:10Z</time>
      </trkpt>
      <trkpt lat="42.00683" lon="0.96079">
        <ele>1122.723</ele>
        <time>2021-07-22T09:04:21Z</time>
      </trkpt>
      <trkpt lat="42.00749" lon="0.95964">
        <ele>1142.171</ele>
        <time>2021-07-22T09:04:32Z</time>
      </trkpt>
      <trkpt lat="42.00828" lon="0.95876">
        <ele>1162.531</ele>
        <time>2021-07-22T09:04:43Z</time>
      </trkpt>
      <trkpt lat="42.0087" lon="0.95804">
        <ele>1176.217</ele>
        <time>2021-07-22T09:04:54Z</time>
      </trkpt>
      <trkpt lat="42.00893" lon="0.95745">
        <ele>1182.992</ele>
        <time>2021-07-22T09:05:05Z</time>
      </trkpt>
      <trkpt lat="42.00944" lon="0.95697">
        <ele>1185.934</ele>
        <time>2021-07-22T09:05:16Z</time>
      </trkpt>
      <trkpt lat="42.00965" lon="0.95648">
        <ele>1186.999</ele>
        <time>2021-07-22T09:05:27Z</time>
      </trkpt>
      <trkpt lat="42.00949" lon="0.95547">
        <ele>1205.249</ele>
        <time>2021-07-22T09:05:38Z</time>
      </trkpt>
      <trkpt lat="42.00969" lon="0.95479">
        <ele>1216.562</ele>
        <time>2021-07-22T09:05:49Z</time>
      </trkpt>
      <trkpt lat="42.01025" lon="0.95424">
        <ele>1229.352</ele>
        <time>2021-07-22T09:06:00Z</time>
      </trkpt>
      <trkpt lat="42.01023" lon="0.9537">
        <ele>1238.782</ele>
        <time>2021-07-22T09:06:11Z</time>
      </trkpt>
      <trkpt lat="42.01006" lon="0.95352">
        <ele>1249.584</ele>
        <time>2021-07-22T09:06:22Z</time>
      </trkpt>
      <trkpt lat="42.01107" lon="0.95346">
        <ele>1260.852</ele>
        <time>2021-07-22T09:06:33Z</time>
      </trkpt>
      <trkpt lat="42.01184" lon="0.95358">
        <ele>1266.579</ele>
        <time>2021-07-22T09:06:44Z</time>
      </trkpt>
      <trkpt lat="42.01208" lon="0.95211">
        <ele>1282.129</ele>
        <time>2021-07-22T09:06:55Z</time>
      </trkpt>
      <trkpt lat="42.01243" lon="0.95124">
        <ele>1289.068</ele>
        <time>2021-07-22T09:07:06Z</time>
      </trkpt>
      <trkpt lat="42.01294" lon="0.95125">
        <ele>1294.7</ele>
        <time>2021-07-22T09:07:17Z</time>
      </trkpt>
      <trkpt lat="42.01302" lon="0.95149">
        <ele>1297.457</ele>
        <time>2021-07-22T09:07:28Z</time>
      </trkpt>
      <trkpt lat="42.01331" lon="0.95307">
        <ele>1306.894</ele>
        <time>2021-07-22T09:07:39Z</time>
      </trkpt>
      <trkpt lat="42.01385" lon="0.95477">
        <ele>1309.854</ele>
        <time>2021-07-22T09:07:50Z</time>
      </trkpt>
      <trkpt lat="42.01378" lon="0.9569">
        <ele>1312.777</ele>
        <time>2021-07-22T09:08:01Z</time>
      </trkpt>
      <trkpt lat="42.01265" lon="0.95755">
        <ele>1310.301</ele>
        <time>2021-07-22T09:08:12Z</time>
      </trkpt>
      <trkpt lat="42.0125" lon="0.95895">
        <ele>1313.469</ele>
        <time>2021-07-22T09:08:23Z</time>
      </trkpt>
      <trkpt lat="42.01293" lon="0.96046">
        <ele>1310.943</ele>
        <time>2021-07-22T09:08:34Z</time>
      </trkpt>
      <trkpt lat="42.01248" lon="0.96163">
        <ele>1315.107</ele>
        <time>2021-07-22T09:08:45Z</time>
      </trkpt>
      <trkpt lat="42.01301" lon="0.96409">
        <ele>1311.407</ele>
        <time>2021-07-22T09:08:56Z</time>
      </trkpt>
      <trkpt lat="42.01317" lon="0.96527">
        <ele>1311.131</ele>
        <time>2021-07-22T09:09:07Z</time>
      </trkpt>
      <trkpt lat="42.01377" lon="0.96481">
        <ele>1307.595</ele>
        <time>2021-07-22T09:09:18Z</time>
      </trkpt>
      <trkpt lat="42.01411" lon="0.96577">
        <ele>1310.046</ele>
        <time>2021-07-22T09:09:29Z</time>
      </trkpt>
      <trkpt lat="42.01414" lon="0.96587">
        <ele>1308.425</ele>
        <time>2021-07-22T09:09:58Z</time>
      </trkpt>
      <trkpt lat="42.01457" lon="0.96772">
        <ele>1308.505</ele>
        <time>2021-07-22T09:10:09Z</time>
      </trkpt>
      <trkpt lat="42.01458" lon="0.96817">
        <ele>1310.43</ele>
        <time>2021-07-22T09:10:20Z</time>
      </trkpt>
      <trkpt lat="42.01461" lon="0.96858">
        <ele>1310.316</ele>
        <time>2021-07-22T09:10:31Z</time>
      </trkpt>
      <trkpt lat="42.01463" lon="0.96905">
        <ele>1310.484</ele>
        <time>2021-07-22T09:10:42Z</time>
      </trkpt>
      <trkpt lat="42.01473" lon="0.97115">
        <ele>1313.399</ele>
        <time>2021-07-22T09:10:53Z</time>
      </trkpt>
      <trkpt lat="42.01501" lon="0.97357">
        <ele>1311.953</ele>
        <time>2021-07-22T09:11:04Z</time>
      </trkpt>
      <trkpt lat="42.01491" lon="0.97511">
        <ele>1304.437</ele>
        <time>2021-07-22T09:11:15Z</time>
      </trkpt>
      <trkpt lat="42.01432" lon="0.9757">
        <ele>1296.504</ele>
        <time>2021-07-22T09:11:26Z</time>
      </trkpt>
      <trkpt lat="42.01473" lon="0.97644">
        <ele>1294.723</ele>
        <time>2021-07-22T09:11:37Z</time>
      </trkpt>
      <trkpt lat="42.0154" lon="0.97771">
        <ele>1291.1</ele>
        <time>2021-07-22T09:11:48Z</time>
      </trkpt>
      <trkpt lat="42.01554" lon="0.97957">
        <ele>1286.139</ele>
        <time>2021-07-22T09:11:59Z</time>
      </trkpt>
      <trkpt lat="42.0152" lon="0.98096">
        <ele>1278.746</ele>
        <time>2021-07-22T09:12:10Z</time>
      </trkpt>
      <trkpt lat="42.01465" lon="0.98037">
        <ele>1271.725</ele>
        <time>2021-07-22T09:12:21Z</time>
      </trkpt>
      <trkpt lat="42.01384" lon="0.98114">
        <ele>1269.436</ele>
        <time>2021-07-22T09:12:32Z</time>
      </trkpt>
      <trkpt lat="42.01435" lon="0.98215">
        <ele>1257.93</ele>
        <time>2021-07-22T09:12:43Z</time>
      </trkpt>
      <trkpt lat="42.01476" lon="0.98351">
        <ele>1244.113</ele>
        <time>2021-07-22T09:12:54Z</time>
      </trkpt>
      <trkpt lat="42.0149" lon="0.98518">
        <ele>1227.448</ele>
        <time>2021-07-22T09:13:05Z</time>
      </trkpt>
      <trkpt lat="42.01488" lon="0.9866">
        <ele>1207.495</ele>
        <time>2021-07-22T09:13:16Z</time>
      </trkpt>
      <trkpt lat="42.01539" lon="0.98697">
        <ele>1205.292</ele>
        <time>2021-07-22T09:13:27Z</time>
      </trkpt>
      <trkpt lat="42.016" lon="0.98765">
        <ele>1197.342</ele>
        <time>2021-07-22T09:13:38Z</time>
      </trkpt>
      <trkpt lat="42.01622" lon="0.98799">
        <ele>1191.686</ele>
        <time>2021-07-22T09:13:49Z</time>
      </trkpt>
      <trkpt lat="42.01592" lon="0.98846">
        <ele>1182.615</ele>
        <time>2021-07-22T09:14:00Z</time>
      </trkpt>
      <trkpt lat="42.01541" lon="0.98922">
        <ele>1167.774</ele>
        <time>2021-07-22T09:14:11Z</time>
      </trkpt>
      <trkpt lat="42.01549" lon="0.99018">
        <ele>1152.904</ele>
        <time>2021-07-22T09:14:22Z</time>
      </trkpt>
      <trkpt lat="42.01589" lon="0.99083">
        <ele>1141.118</ele>
        <time>2021-07-22T09:14:33Z</time>
      </trkpt>
      <trkpt lat="42.01592" lon="0.99133">
        <ele>1137.636</ele>
        <time>2021-07-22T09:14:44Z</time>
      </trkpt>
      <trkpt lat="42.01606" lon="0.99151">
        <ele>1138.701</ele>
        <time>2021-07-22T09:14:55Z</time>
      </trkpt>
      <trkpt lat="42.01636" lon="0.99206">
        <ele>1127.691</ele>
        <time>2021-07-22T09:15:06Z</time>
      </trkpt>
      <trkpt lat="42.01649" lon="0.99256">
        <ele>1125.57</ele>
        <time>2021-07-22T09:15:17Z</time>
      </trkpt>
      <trkpt lat="42.01584" lon="0.99372">
        <ele>1124.138</ele>
        <time>2021-07-22T09:15:28Z</time>
      </trkpt>
      <trkpt lat="42.01557" lon="0.9948">
        <ele>1104.921</ele>
        <time>2021-07-22T09:15:39Z</time>
      </trkpt>
      <trkpt lat="42.01531" lon="0.9957">
        <ele>1096.572</ele>
        <time>2021-07-22T09:15:50Z</time>
      </trkpt>
      <trkpt lat="42.0153" lon="0.99693">
        <ele>1095.438</ele>
        <time>2021-07-22T09:16:01Z</time>
      </trkpt>
      <trkpt lat="42.01588" lon="0.99754">
        <ele>1098.562</ele>
        <time>2021-07-22T09:16:12Z</time>
      </trkpt>
      <trkpt lat="42.01581" lon="0.99819">
        <ele>1091.694</ele>
        <time>2021-07-22T09:16:23Z</time>
      </trkpt>
      <trkpt lat="42.01587" lon="0.99897">
        <ele>1084.854</ele>
        <time>2021-07-22T09:16:34Z</time>
      </trkpt>
      <trkpt lat="42.01494" lon="0.99921">
        <ele>1083.603</ele>
        <time>2021-07-22T09:16:45Z</time>
      </trkpt>
      <trkpt lat="42.01414" lon="0.99974">
        <ele>1078.194</ele>
        <time>2021-07-22T09:16:56Z</time>
      </trkpt>
      <trkpt lat="42.0134" lon="1.00055">
        <ele>1059.462</ele>
        <time>2021-07-22T09:17:07Z</time>
      </trkpt>
      <trkpt lat="42.01252" lon="1.00094">
        <ele>1047.974</ele>
        <time>2021-07-22T09:17:18Z</time>
      </trkpt>
      <trkpt lat="42.01243" lon="1.00211">
        <ele>1042.316</ele>
        <time>2021-07-22T09:17:29Z</time>
      </trkpt>
      <trkpt lat="42.0119" lon="1.00302">
        <ele>1024.184</ele>
        <time>2021-07-22T09:17:40Z</time>
      </trkpt>
      <trkpt lat="42.01174" lon="1.00401">
        <ele>1016.817</ele>
        <time>2021-07-22T09:17:51Z</time>
      </trkpt>
      <trkpt lat="42.01179" lon="1.00533">
        <ele>1011.985</ele>
        <time>2021-07-22T09:18:02Z</time>
      </trkpt>
      <trkpt lat="42.01243" lon="1.00611">
        <ele>1008.111</ele>
        <time>2021-07-22T09:18:13Z</time>
      </trkpt>
      <trkpt lat="42.01197" lon="1.00707">
        <ele>1007.816</ele>
        <time>2021-07-22T09:18:24Z</time>
      </trkpt>
      <trkpt lat="42.01148" lon="1.00866">
        <ele>1005.665</ele>
        <time>2021-07-22T09:18:35Z</time>
      </trkpt>
      <trkpt lat="42.0113" lon="1.01027">
        <ele>991.777</ele>
        <time>2021-07-22T09:18:46Z</time>
      </trkpt>
      <trkpt lat="42.01148" lon="1.01163">
        <ele>972.3781</ele>
        <time>2021-07-22T09:18:57Z</time>
      </trkpt>
      <trkpt lat="42.01154" lon="1.01278">
        <ele>963.2312</ele>
        <time>2021-07-22T09:19:08Z</time>
      </trkpt>
      <trkpt lat="42.01225" lon="1.01355">
        <ele>971.7839</ele>
        <time>2021-07-22T09:19:19Z</time>
      </trkpt>
      <trkpt lat="42.01205" lon="1.01465">
        <ele>973.4006</ele>
        <time>2021-07-22T09:19:30Z</time>
      </trkpt>
      <trkpt lat="42.0117" lon="1.01586">
        <ele>959.8121</ele>
        <time>2021-07-22T09:19:41Z</time>
      </trkpt>
      <trkpt lat="42.0114" lon="1.01677">
        <ele>948.8949</ele>
        <time>2021-07-22T09:19:52Z</time>
      </trkpt>
      <trkpt lat="42.01088" lon="1.01765">
        <ele>948.0165</ele>
        <time>2021-07-22T09:20:03Z</time>
      </trkpt>
      <trkpt lat="42.01057" lon="1.01894">
        <ele>942.0195</ele>
        <time>2021-07-22T09:20:14Z</time>
      </trkpt>
      <trkpt lat="42.01027" lon="1.01884">
        <ele>934.4505</ele>
        <time>2021-07-22T09:20:25Z</time>
      </trkpt>
      <trkpt lat="42.01014" lon="1.01852">
        <ele>931.3029</ele>
        <time>2021-07-22T09:20:36Z</time>
      </trkpt>
      <trkpt lat="42.00943" lon="1.01853">
        <ele>931.2253</ele>
        <time>2021-07-22T09:20:47Z</time>
      </trkpt>
      <trkpt lat="42.00849" lon="1.01889">
        <ele>916.5693</ele>
        <time>2021-07-22T09:20:58Z</time>
      </trkpt>
      <trkpt lat="42.0086" lon="1.01995">
        <ele>909.7267</ele>
        <time>2021-07-22T09:21:09Z</time>
      </trkpt>
      <trkpt lat="42.00852" lon="1.02116">
        <ele>910.3657</ele>
        <time>2021-07-22T09:21:20Z</time>
      </trkpt>
      <trkpt lat="42.00798" lon="1.02227">
        <ele>903.8579</ele>
        <time>2021-07-22T09:21:31Z</time>
      </trkpt>
      <trkpt lat="42.00838" lon="1.0231">
        <ele>896.8752</ele>
        <time>2021-07-22T09:21:42Z</time>
      </trkpt>
      <trkpt lat="42.0083" lon="1.02406">
        <ele>886.707</ele>
        <time>2021-07-22T09:21:53Z</time>
      </trkpt>
      <trkpt lat="42.00778" lon="1.02536">
        <ele>868.7388</ele>
        <time>2021-07-22T09:22:04Z</time>
      </trkpt>
      <trkpt lat="42.00795" lon="1.02666">
        <ele>860.453</ele>
        <time>2021-07-22T09:22:15Z</time>
      </trkpt>
      <trkpt lat="42.00881" lon="1.02717">
        <ele>859.0752</ele>
        <time>2021-07-22T09:22:26Z</time>
      </trkpt>
      <trkpt lat="42.00946" lon="1.02636">
        <ele>857.339</ele>
        <time>2021-07-22T09:22:37Z</time>
      </trkpt>
      <trkpt lat="42.00984" lon="1.02543">
        <ele>856.0409</ele>
        <time>2021-07-22T09:22:48Z</time>
      </trkpt>
      <trkpt lat="42.01039" lon="1.0242">
        <ele>846.917</ele>
        <time>2021-07-22T09:22:59Z</time>
      </trkpt>
      <trkpt lat="42.0106" lon="1.02318">
        <ele>838.3554</ele>
        <time>2021-07-22T09:23:10Z</time>
      </trkpt>
      <trkpt lat="42.01149" lon="1.02374">
        <ele>827.9064</ele>
        <time>2021-07-22T09:23:21Z</time>
      </trkpt>
      <trkpt lat="42.01207" lon="1.0246">
        <ele>819.6342</ele>
        <time>2021-07-22T09:23:32Z</time>
      </trkpt>
      <trkpt lat="42.01235" lon="1.02374">
        <ele>813.4693</ele>
        <time>2021-07-22T09:23:43Z</time>
      </trkpt>
      <trkpt lat="42.0126" lon="1.02326">
        <ele>807.3987</ele>
        <time>2021-07-22T09:23:54Z</time>
      </trkpt>
      <trkpt lat="42.01285" lon="1.02435">
        <ele>803.4419</ele>
        <time>2021-07-22T09:24:05Z</time>
      </trkpt>
      <trkpt lat="42.01327" lon="1.02574">
        <ele>793.2788</ele>
        <time>2021-07-22T09:24:16Z</time>
      </trkpt>
      <trkpt lat="42.01354" lon="1.02701">
        <ele>785.8599</ele>
        <time>2021-07-22T09:24:27Z</time>
      </trkpt>
      <trkpt lat="42.01376" lon="1.02824">
        <ele>778.1487</ele>
        <time>2021-07-22T09:24:38Z</time>
      </trkpt>
      <trkpt lat="42.01412" lon="1.0288">
        <ele>774.3318</ele>
        <time>2021-07-22T09:24:49Z</time>
      </trkpt>
      <trkpt lat="42.01501" lon="1.02901">
        <ele>770.174</ele>
        <time>2021-07-22T09:25:00Z</time>
      </trkpt>
      <trkpt lat="42.01566" lon="1.02891">
        <ele>767.0938</ele>
        <time>2021-07-22T09:25:11Z</time>
      </trkpt>
      <trkpt lat="42.01693" lon="1.02845">
        <ele>781.4751</ele>
        <time>2021-07-22T09:25:22Z</time>
      </trkpt>
      <trkpt lat="42.0183" lon="1.02914">
        <ele>788.1005</ele>
        <time>2021-07-22T09:25:33Z</time>
      </trkpt>
      <trkpt lat="42.01975" lon="1.02983">
        <ele>800.8275</ele>
        <time>2021-07-22T09:25:44Z</time>
      </trkpt>
      <trkpt lat="42.02086" lon="1.03024">
        <ele>807.0827</ele>
        <time>2021-07-22T09:25:55Z</time>
      </trkpt>
      <trkpt lat="42.02091" lon="1.03021">
        <ele>805.6926</ele>
        <time>2021-07-22T09:26:06Z</time>
      </trkpt>
      <trkpt lat="42.021" lon="1.03015">
        <ele>807.9448</ele>
        <time>2021-07-22T09:26:17Z</time>
      </trkpt>
      <trkpt lat="42.02098" lon="1.03017">
        <ele>816.4667</ele>
        <time>2021-07-22T09:27:16Z</time>
      </trkpt>
      <trkpt lat="42.02097" lon="1.03016">
        <ele>798.8158</ele>
        <time>2021-07-22T09:28:15Z</time>
      </trkpt>
      <trkpt lat="42.02097" lon="1.03015">
        <ele>798.8381</ele>
        <time>2021-07-22T09:29:14Z</time>
      </trkpt>
      <trkpt lat="42.02095" lon="1.0302">
        <ele>799.4948</ele>
        <time>2021-07-22T09:29:26Z</time>
      </trkpt>
      <trkpt lat="42.02099" lon="1.03017">
        <ele>799.3787</ele>
        <time>2021-07-22T09:29:47Z</time>
      </trkpt>
      <trkpt lat="42.02095" lon="1.03017">
        <ele>798.022</ele>
        <time>2021-07-22T09:30:12Z</time>
      </trkpt>
      <trkpt lat="42.02099" lon="1.03018">
        <ele>798.3864</ele>
        <time>2021-07-22T09:30:47Z</time>
      </trkpt>
      <trkpt lat="42.02099" lon="1.03019">
        <ele>798.0682</ele>
        <time>2021-07-22T09:31:46Z</time>
      </trkpt>
      <trkpt lat="42.02102" lon="1.03022">
        <ele>799.9275</ele>
        <time>2021-07-22T09:32:00Z</time>
      </trkpt>
      <trkpt lat="42.02099" lon="1.03019">
        <ele>800.1831</ele>
        <time>2021-07-22T09:32:13Z</time>
      </trkpt>
      <trkpt lat="42.02098" lon="1.03014">
        <ele>798.6688</ele>
        <time>2021-07-22T09:32:58Z</time>
      </trkpt>
      <trkpt lat="42.021" lon="1.03019">
        <ele>798.5183</ele>
        <time>2021-07-22T09:33:54Z</time>
      </trkpt>
      <trkpt lat="42.02102" lon="1.03015">
        <ele>798.734</ele>
        <time>2021-07-22T09:34:06Z</time>
      </trkpt>
      <trkpt lat="42.02102" lon="1.03022">
        <ele>798.8983</ele>
        <time>2021-07-22T09:34:27Z</time>
      </trkpt>
      <trkpt lat="42.02101" lon="1.03022">
        <ele>800.0871</ele>
        <time>2021-07-22T09:35:27Z</time>
      </trkpt>
      <trkpt lat="42.02097" lon="1.0302">
        <ele>800.8449</ele>
        <time>2021-07-22T09:35:49Z</time>
      </trkpt>
      <trkpt lat="42.02098" lon="1.03018">
        <ele>799.4236</ele>
        <time>2021-07-22T09:36:49Z</time>
      </trkpt>
      <trkpt lat="42.02095" lon="1.03015">
        <ele>798.6532</ele>
        <time>2021-07-22T09:37:18Z</time>
      </trkpt>
      <trkpt lat="42.02097" lon="1.03017">
        <ele>797.6283</ele>
        <time>2021-07-22T09:38:18Z</time>
      </trkpt>
      <trkpt lat="42.02097" lon="1.03017">
        <ele>797.6283</ele>
        <time>2021-07-22T09:39:18Z</time>
      </trkpt>
      <trkpt lat="42.02101" lon="1.0301">
        <ele>798.5791</ele>
        <time>2021-07-22T09:40:00Z</time>
      </trkpt>
      <trkpt lat="42.02105" lon="1.03012">
        <ele>799.2144</ele>
        <time>2021-07-22T09:40:26Z</time>
      </trkpt>
      <trkpt lat="42.02097" lon="1.03018">
        <ele>799.8837</ele>
        <time>2021-07-22T09:41:22Z</time>
      </trkpt>
      <trkpt lat="42.02101" lon="1.03018">
        <ele>798.4483</ele>
        <time>2021-07-22T09:42:08Z</time>
      </trkpt>
      <trkpt lat="42.0209" lon="1.03022">
        <ele>800.9154</ele>
        <time>2021-07-22T09:42:19Z</time>
      </trkpt>
      <trkpt lat="42.02086" lon="1.03035">
        <ele>800.9474</ele>
        <time>2021-07-22T09:42:30Z</time>
      </trkpt>
      <trkpt lat="42.02085" lon="1.03043">
        <ele>802.8864</ele>
        <time>2021-07-22T09:42:57Z</time>
      </trkpt>
      <trkpt lat="42.01986" lon="1.03133">
        <ele>814.0282</ele>
        <time>2021-07-22T09:43:08Z</time>
      </trkpt>
      <trkpt lat="42.01903" lon="1.03264">
        <ele>818.1991</ele>
        <time>2021-07-22T09:43:19Z</time>
      </trkpt>
      <trkpt lat="42.0181" lon="1.03343">
        <ele>825.5314</ele>
        <time>2021-07-22T09:43:30Z</time>
      </trkpt>
      <trkpt lat="42.01683" lon="1.03317">
        <ele>833.3828</ele>
        <time>2021-07-22T09:43:41Z</time>
      </trkpt>
      <trkpt lat="42.01571" lon="1.03317">
        <ele>841.751</ele>
        <time>2021-07-22T09:43:52Z</time>
      </trkpt>
      <trkpt lat="42.01635" lon="1.03367">
        <ele>846.1167</ele>
        <time>2021-07-22T09:44:03Z</time>
      </trkpt>
      <trkpt lat="42.01787" lon="1.03429">
        <ele>854.5054</ele>
        <time>2021-07-22T09:44:14Z</time>
      </trkpt>
      <trkpt lat="42.01902" lon="1.03471">
        <ele>862.0711</ele>
        <time>2021-07-22T09:44:25Z</time>
      </trkpt>
      <trkpt lat="42.02024" lon="1.03326">
        <ele>873.3135</ele>
        <time>2021-07-22T09:44:36Z</time>
      </trkpt>
      <trkpt lat="42.02125" lon="1.03361">
        <ele>879.3686</ele>
        <time>2021-07-22T09:44:47Z</time>
      </trkpt>
      <trkpt lat="42.02253" lon="1.03479">
        <ele>890.1155</ele>
        <time>2021-07-22T09:44:58Z</time>
      </trkpt>
      <trkpt lat="42.02369" lon="1.03507">
        <ele>897.5195</ele>
        <time>2021-07-22T09:45:09Z</time>
      </trkpt>
      <trkpt lat="42.02487" lon="1.03562">
        <ele>912.2622</ele>
        <time>2021-07-22T09:45:20Z</time>
      </trkpt>
      <trkpt lat="42.026" lon="1.03473">
        <ele>909.6964</ele>
        <time>2021-07-22T09:45:31Z</time>
      </trkpt>
      <trkpt lat="42.02738" lon="1.0332">
        <ele>917.5852</ele>
        <time>2021-07-22T09:45:42Z</time>
      </trkpt>
      <trkpt lat="42.02798" lon="1.03136">
        <ele>942.016</ele>
        <time>2021-07-22T09:45:53Z</time>
      </trkpt>
      <trkpt lat="42.02771" lon="1.03">
        <ele>960.273</ele>
        <time>2021-07-22T09:46:04Z</time>
      </trkpt>
      <trkpt lat="42.02708" lon="1.02854">
        <ele>976.7949</ele>
        <time>2021-07-22T09:46:15Z</time>
      </trkpt>
      <trkpt lat="42.02789" lon="1.02805">
        <ele>981.0614</ele>
        <time>2021-07-22T09:46:26Z</time>
      </trkpt>
      <trkpt lat="42.02938" lon="1.02824">
        <ele>978.382</ele>
        <time>2021-07-22T09:46:37Z</time>
      </trkpt>
      <trkpt lat="42.02983" lon="1.02717">
        <ele>983.8878</ele>
        <time>2021-07-22T09:46:48Z</time>
      </trkpt>
      <trkpt lat="42.03005" lon="1.02679">
        <ele>997.1921</ele>
        <time>2021-07-22T09:46:59Z</time>
      </trkpt>
      <trkpt lat="42.03076" lon="1.02827">
        <ele>996.6732</ele>
        <time>2021-07-22T09:47:10Z</time>
      </trkpt>
      <trkpt lat="42.03198" lon="1.02653">
        <ele>999.1953</ele>
        <time>2021-07-22T09:47:21Z</time>
      </trkpt>
      <trkpt lat="42.03254" lon="1.02466">
        <ele>997.8589</ele>
        <time>2021-07-22T09:47:32Z</time>
      </trkpt>
      <trkpt lat="42.03344" lon="1.02337">
        <ele>1013.661</ele>
        <time>2021-07-22T09:47:43Z</time>
      </trkpt>
      <trkpt lat="42.03392" lon="1.02168">
        <ele>1025.325</ele>
        <time>2021-07-22T09:47:54Z</time>
      </trkpt>
      <trkpt lat="42.03518" lon="1.01991">
        <ele>1027.121</ele>
        <time>2021-07-22T09:48:05Z</time>
      </trkpt>
      <trkpt lat="42.03639" lon="1.0193">
        <ele>1029.259</ele>
        <time>2021-07-22T09:48:16Z</time>
      </trkpt>
      <trkpt lat="42.03739" lon="1.0197">
        <ele>1031.113</ele>
        <time>2021-07-22T09:48:27Z</time>
      </trkpt>
      <trkpt lat="42.03873" lon="1.01994">
        <ele>1028.804</ele>
        <time>2021-07-22T09:48:38Z</time>
      </trkpt>
      <trkpt lat="42.04032" lon="1.02132">
        <ele>1042.544</ele>
        <time>2021-07-22T09:48:49Z</time>
      </trkpt>
      <trkpt lat="42.04121" lon="1.02137">
        <ele>1040.526</ele>
        <time>2021-07-22T09:49:00Z</time>
      </trkpt>
      <trkpt lat="42.04186" lon="1.02133">
        <ele>1034.731</ele>
        <time>2021-07-22T09:49:11Z</time>
      </trkpt>
      <trkpt lat="42.04198" lon="1.01996">
        <ele>1035.027</ele>
        <time>2021-07-22T09:49:22Z</time>
      </trkpt>
      <trkpt lat="42.04268" lon="1.02007">
        <ele>1032.427</ele>
        <time>2021-07-22T09:49:33Z</time>
      </trkpt>
      <trkpt lat="42.04323" lon="1.02073">
        <ele>1020.678</ele>
        <time>2021-07-22T09:49:44Z</time>
      </trkpt>
      <trkpt lat="42.04373" lon="1.02159">
        <ele>1004.1</ele>
        <time>2021-07-22T09:49:55Z</time>
      </trkpt>
      <trkpt lat="42.0444" lon="1.02104">
        <ele>995.9341</ele>
        <time>2021-07-22T09:50:06Z</time>
      </trkpt>
      <trkpt lat="42.04496" lon="1.02156">
        <ele>992.1957</ele>
        <time>2021-07-22T09:50:17Z</time>
      </trkpt>
      <trkpt lat="42.04478" lon="1.02232">
        <ele>984.9838</ele>
        <time>2021-07-22T09:50:28Z</time>
      </trkpt>
      <trkpt lat="42.04498" lon="1.02305">
        <ele>980.2201</ele>
        <time>2021-07-22T09:50:39Z</time>
      </trkpt>
      <trkpt lat="42.0459" lon="1.02335">
        <ele>973.4135</ele>
        <time>2021-07-22T09:50:50Z</time>
      </trkpt>
      <trkpt lat="42.04669" lon="1.02295">
        <ele>967.1953</ele>
        <time>2021-07-22T09:51:01Z</time>
      </trkpt>
      <trkpt lat="42.04739" lon="1.02248">
        <ele>961.4044</ele>
        <time>2021-07-22T09:51:12Z</time>
      </trkpt>
      <trkpt lat="42.04709" lon="1.02388">
        <ele>963.2351</ele>
        <time>2021-07-22T09:51:23Z</time>
      </trkpt>
      <trkpt lat="42.04773" lon="1.02499">
        <ele>966.8623</ele>
        <time>2021-07-22T09:51:34Z</time>
      </trkpt>
      <trkpt lat="42.04819" lon="1.02619">
        <ele>964.2256</ele>
        <time>2021-07-22T09:51:45Z</time>
      </trkpt>
      <trkpt lat="42.04903" lon="1.02779">
        <ele>964.6328</ele>
        <time>2021-07-22T09:51:56Z</time>
      </trkpt>
      <trkpt lat="42.04928" lon="1.02877">
        <ele>959.261</ele>
        <time>2021-07-22T09:52:07Z</time>
      </trkpt>
      <trkpt lat="42.04859" lon="1.03065">
        <ele>946.6059</ele>
        <time>2021-07-22T09:52:18Z</time>
      </trkpt>
      <trkpt lat="42.04797" lon="1.03117">
        <ele>917.0701</ele>
        <time>2021-07-22T09:52:29Z</time>
      </trkpt>
      <trkpt lat="42.04706" lon="1.03274">
        <ele>931.3225</ele>
        <time>2021-07-22T09:52:40Z</time>
      </trkpt>
      <trkpt lat="42.04629" lon="1.03386">
        <ele>921.6274</ele>
        <time>2021-07-22T09:52:51Z</time>
      </trkpt>
      <trkpt lat="42.04558" lon="1.03479">
        <ele>910.9198</ele>
        <time>2021-07-22T09:53:02Z</time>
      </trkpt>
      <trkpt lat="42.04574" lon="1.03574">
        <ele>908.8972</ele>
        <time>2021-07-22T09:53:13Z</time>
      </trkpt>
      <trkpt lat="42.04508" lon="1.03515">
        <ele>902.7543</ele>
        <time>2021-07-22T09:53:24Z</time>
      </trkpt>
      <trkpt lat="42.04467" lon="1.03564">
        <ele>891.4963</ele>
        <time>2021-07-22T09:53:35Z</time>
      </trkpt>
      <trkpt lat="42.04498" lon="1.03716">
        <ele>882.025</ele>
        <time>2021-07-22T09:53:46Z</time>
      </trkpt>
      <trkpt lat="42.04498" lon="1.03738">
        <ele>883.0268</ele>
        <time>2021-07-22T09:53:57Z</time>
      </trkpt>
      <trkpt lat="42.04439" lon="1.03773">
        <ele>885.4371</ele>
        <time>2021-07-22T09:54:08Z</time>
      </trkpt>
      <trkpt lat="42.04481" lon="1.04025">
        <ele>891.9374</ele>
        <time>2021-07-22T09:54:19Z</time>
      </trkpt>
      <trkpt lat="42.04478" lon="1.04186">
        <ele>904.6129</ele>
        <time>2021-07-22T09:54:30Z</time>
      </trkpt>
      <trkpt lat="42.04451" lon="1.04407">
        <ele>913.3689</ele>
        <time>2021-07-22T09:54:41Z</time>
      </trkpt>
      <trkpt lat="42.04365" lon="1.04581">
        <ele>924.2851</ele>
        <time>2021-07-22T09:54:52Z</time>
      </trkpt>
      <trkpt lat="42.04218" lon="1.0451">
        <ele>935.6263</ele>
        <time>2021-07-22T09:55:03Z</time>
      </trkpt>
      <trkpt lat="42.04155" lon="1.04714">
        <ele>941.4869</ele>
        <time>2021-07-22T09:55:14Z</time>
      </trkpt>
      <trkpt lat="42.04024" lon="1.04754">
        <ele>949.2716</ele>
        <time>2021-07-22T09:55:25Z</time>
      </trkpt>
      <trkpt lat="42.04035" lon="1.04953">
        <ele>958.0156</ele>
        <time>2021-07-22T09:55:36Z</time>
      </trkpt>
      <trkpt lat="42.04186" lon="1.05171">
        <ele>967.5438</ele>
        <time>2021-07-22T09:55:47Z</time>
      </trkpt>
      <trkpt lat="42.0427" lon="1.05352">
        <ele>967.5947</ele>
        <time>2021-07-22T09:55:58Z</time>
      </trkpt>
      <trkpt lat="42.04286" lon="1.05538">
        <ele>982.9856</ele>
        <time>2021-07-22T09:56:09Z</time>
      </trkpt>
      <trkpt lat="42.04303" lon="1.05743">
        <ele>981.9556</ele>
        <time>2021-07-22T09:56:20Z</time>
      </trkpt>
      <trkpt lat="42.04391" lon="1.05959">
        <ele>993.2842</ele>
        <time>2021-07-22T09:56:31Z</time>
      </trkpt>
      <trkpt lat="42.04485" lon="1.06145">
        <ele>1002.295</ele>
        <time>2021-07-22T09:56:42Z</time>
      </trkpt>
      <trkpt lat="42.04591" lon="1.06395">
        <ele>1008.881</ele>
        <time>2021-07-22T09:56:53Z</time>
      </trkpt>
      <trkpt lat="42.04472" lon="1.06578">
        <ele>1016.709</ele>
        <time>2021-07-22T09:57:04Z</time>
      </trkpt>
      <trkpt lat="42.04355" lon="1.06792">
        <ele>1027.515</ele>
        <time>2021-07-22T09:57:15Z</time>
      </trkpt>
      <trkpt lat="42.04495" lon="1.07073">
        <ele>1035.534</ele>
        <time>2021-07-22T09:57:26Z</time>
      </trkpt>
      <trkpt lat="42.04709" lon="1.07318">
        <ele>1047.763</ele>
        <time>2021-07-22T09:57:37Z</time>
      </trkpt>
      <trkpt lat="42.04811" lon="1.07471">
        <ele>1056.52</ele>
        <time>2021-07-22T09:57:48Z</time>
      </trkpt>
      <trkpt lat="42.04975" lon="1.07634">
        <ele>1064.12</ele>
        <time>2021-07-22T09:57:59Z</time>
      </trkpt>
      <trkpt lat="42.05133" lon="1.07832">
        <ele>1074.914</ele>
        <time>2021-07-22T09:58:10Z</time>
      </trkpt>
      <trkpt lat="42.05222" lon="1.08102">
        <ele>1083.196</ele>
        <time>2021-07-22T09:58:21Z</time>
      </trkpt>
      <trkpt lat="42.05336" lon="1.08353">
        <ele>1086.837</ele>
        <time>2021-07-22T09:58:32Z</time>
      </trkpt>
      <trkpt lat="42.05427" lon="1.08584">
        <ele>1094.703</ele>
        <time>2021-07-22T09:58:43Z</time>
      </trkpt>
      <trkpt lat="42.05505" lon="1.0881">
        <ele>1098.955</ele>
        <time>2021-07-22T09:58:54Z</time>
      </trkpt>
      <trkpt lat="42.05497" lon="1.08972">
        <ele>1100.779</ele>
        <time>2021-07-22T09:59:05Z</time>
      </trkpt>
      <trkpt lat="42.05493" lon="1.08978">
        <ele>1101.929</ele>
        <time>2021-07-22T09:59:16Z</time>
      </trkpt>
      <trkpt lat="42.05481" lon="1.08988">
        <ele>1103.479</ele>
        <time>2021-07-22T09:59:27Z</time>
      </trkpt>
      <trkpt lat="42.0533" lon="1.09122">
        <ele>1101.422</ele>
        <time>2021-07-22T09:59:38Z</time>
      </trkpt>
      <trkpt lat="42.05192" lon="1.09417">
        <ele>1097.868</ele>
        <time>2021-07-22T09:59:49Z</time>
      </trkpt>
      <trkpt lat="42.04975" lon="1.0952">
        <ele>1089.875</ele>
        <time>2021-07-22T10:00:00Z</time>
      </trkpt>
      <trkpt lat="42.04768" lon="1.09546">
        <ele>1082.75</ele>
        <time>2021-07-22T10:00:11Z</time>
      </trkpt>
      <trkpt lat="42.04683" lon="1.09687">
        <ele>1082.275</ele>
        <time>2021-07-22T10:00:22Z</time>
      </trkpt>
      <trkpt lat="42.04688" lon="1.09907">
        <ele>1077.443</ele>
        <time>2021-07-22T10:00:33Z</time>
      </trkpt>
      <trkpt lat="42.04648" lon="1.10007">
        <ele>1068.405</ele>
        <time>2021-07-22T10:00:44Z</time>
      </trkpt>
      <trkpt lat="42.04801" lon="1.09971">
        <ele>1074.173</ele>
        <time>2021-07-22T10:00:55Z</time>
      </trkpt>
      <trkpt lat="42.04777" lon="1.10005">
        <ele>1078.312</ele>
        <time>2021-07-22T10:01:06Z</time>
      </trkpt>
      <trkpt lat="42.04727" lon="1.10091">
        <ele>1082.043</ele>
        <time>2021-07-22T10:01:17Z</time>
      </trkpt>
      <trkpt lat="42.04889" lon="1.10065">
        <ele>1094.656</ele>
        <time>2021-07-22T10:01:28Z</time>
      </trkpt>
      <trkpt lat="42.05064" lon="1.09979">
        <ele>1094.391</ele>
        <time>2021-07-22T10:01:39Z</time>
      </trkpt>
      <trkpt lat="42.05216" lon="1.09886">
        <ele>1108.721</ele>
        <time>2021-07-22T10:01:50Z</time>
      </trkpt>
      <trkpt lat="42.05232" lon="1.09878">
        <ele>1108.299</ele>
        <time>2021-07-22T10:02:01Z</time>
      </trkpt>
      <trkpt lat="42.05228" lon="1.09879">
        <ele>1108.291</ele>
        <time>2021-07-22T10:02:22Z</time>
      </trkpt>
      <trkpt lat="42.05232" lon="1.09877">
        <ele>1106.951</ele>
        <time>2021-07-22T10:02:54Z</time>
      </trkpt>
      <trkpt lat="42.0524" lon="1.09872">
        <ele>1108.839</ele>
        <time>2021-07-22T10:03:28Z</time>
      </trkpt>
      <trkpt lat="42.05367" lon="1.09867">
        <ele>1121.016</ele>
        <time>2021-07-22T10:03:39Z</time>
      </trkpt>
      <trkpt lat="42.05497" lon="1.09847">
        <ele>1123.105</ele>
        <time>2021-07-22T10:03:50Z</time>
      </trkpt>
      <trkpt lat="42.05653" lon="1.09862">
        <ele>1130.713</ele>
        <time>2021-07-22T10:04:01Z</time>
      </trkpt>
      <trkpt lat="42.05727" lon="1.10006">
        <ele>1132.923</ele>
        <time>2021-07-22T10:04:12Z</time>
      </trkpt>
      <trkpt lat="42.05713" lon="1.10196">
        <ele>1136.117</ele>
        <time>2021-07-22T10:04:23Z</time>
      </trkpt>
      <trkpt lat="42.05824" lon="1.10217">
        <ele>1129.389</ele>
        <time>2021-07-22T10:04:34Z</time>
      </trkpt>
      <trkpt lat="42.05915" lon="1.1028">
        <ele>1127.094</ele>
        <time>2021-07-22T10:04:45Z</time>
      </trkpt>
      <trkpt lat="42.0608" lon="1.10204">
        <ele>1120.125</ele>
        <time>2021-07-22T10:04:56Z</time>
      </trkpt>
      <trkpt lat="42.06173" lon="1.10176">
        <ele>1119.827</ele>
        <time>2021-07-22T10:05:07Z</time>
      </trkpt>
      <trkpt lat="42.06084" lon="1.10379">
        <ele>1118.047</ele>
        <time>2021-07-22T10:05:18Z</time>
      </trkpt>
      <trkpt lat="42.06021" lon="1.10539">
        <ele>1129.151</ele>
        <time>2021-07-22T10:05:29Z</time>
      </trkpt>
      <trkpt lat="42.0604" lon="1.10532">
        <ele>1129.025</ele>
        <time>2021-07-22T10:05:40Z</time>
      </trkpt>
      <trkpt lat="42.06081" lon="1.1055">
        <ele>1125.162</ele>
        <time>2021-07-22T10:05:51Z</time>
      </trkpt>
      <trkpt lat="42.06221" lon="1.10523">
        <ele>1117.584</ele>
        <time>2021-07-22T10:06:02Z</time>
      </trkpt>
      <trkpt lat="42.06193" lon="1.10606">
        <ele>1113.264</ele>
        <time>2021-07-22T10:06:13Z</time>
      </trkpt>
      <trkpt lat="42.06098" lon="1.108">
        <ele>1122.627</ele>
        <time>2021-07-22T10:06:24Z</time>
      </trkpt>
      <trkpt lat="42.06103" lon="1.10934">
        <ele>1128.213</ele>
        <time>2021-07-22T10:06:35Z</time>
      </trkpt>
      <trkpt lat="42.06214" lon="1.10836">
        <ele>1136.575</ele>
        <time>2021-07-22T10:06:46Z</time>
      </trkpt>
      <trkpt lat="42.06346" lon="1.10736">
        <ele>1145.887</ele>
        <time>2021-07-22T10:06:57Z</time>
      </trkpt>
      <trkpt lat="42.06482" lon="1.10658">
        <ele>1151.769</ele>
        <time>2021-07-22T10:07:08Z</time>
      </trkpt>
      <trkpt lat="42.06632" lon="1.1058">
        <ele>1158.698</ele>
        <time>2021-07-22T10:07:19Z</time>
      </trkpt>
      <trkpt lat="42.0674" lon="1.10594">
        <ele>1167.736</ele>
        <time>2021-07-22T10:07:30Z</time>
      </trkpt>
      <trkpt lat="42.06826" lon="1.10681">
        <ele>1178.011</ele>
        <time>2021-07-22T10:07:41Z</time>
      </trkpt>
      <trkpt lat="42.06898" lon="1.10495">
        <ele>1188.61</ele>
        <time>2021-07-22T10:07:52Z</time>
      </trkpt>
      <trkpt lat="42.07029" lon="1.10412">
        <ele>1181.344</ele>
        <time>2021-07-22T10:08:03Z</time>
      </trkpt>
      <trkpt lat="42.07126" lon="1.10391">
        <ele>1186.663</ele>
        <time>2021-07-22T10:08:14Z</time>
      </trkpt>
      <trkpt lat="42.072" lon="1.10291">
        <ele>1187.857</ele>
        <time>2021-07-22T10:08:25Z</time>
      </trkpt>
      <trkpt lat="42.07289" lon="1.10241">
        <ele>1192.727</ele>
        <time>2021-07-22T10:08:36Z</time>
      </trkpt>
      <trkpt lat="42.07375" lon="1.10278">
        <ele>1189.718</ele>
        <time>2021-07-22T10:08:47Z</time>
      </trkpt>
      <trkpt lat="42.07483" lon="1.1024">
        <ele>1187.985</ele>
        <time>2021-07-22T10:08:58Z</time>
      </trkpt>
      <trkpt lat="42.07514" lon="1.10279">
        <ele>1197.75</ele>
        <time>2021-07-22T10:09:09Z</time>
      </trkpt>
      <trkpt lat="42.07505" lon="1.10247">
        <ele>1188.248</ele>
        <time>2021-07-22T10:09:20Z</time>
      </trkpt>
      <trkpt lat="42.07505" lon="1.10414">
        <ele>1190.736</ele>
        <time>2021-07-22T10:09:31Z</time>
      </trkpt>
      <trkpt lat="42.07492" lon="1.10544">
        <ele>1195.561</ele>
        <time>2021-07-22T10:09:42Z</time>
      </trkpt>
      <trkpt lat="42.07519" lon="1.10557">
        <ele>1195.057</ele>
        <time>2021-07-22T10:09:53Z</time>
      </trkpt>
      <trkpt lat="42.07593" lon="1.10539">
        <ele>1189.78</ele>
        <time>2021-07-22T10:10:05Z</time>
      </trkpt>
      <trkpt lat="42.07729" lon="1.10479">
        <ele>1183.944</ele>
        <time>2021-07-22T10:10:16Z</time>
      </trkpt>
      <trkpt lat="42.07818" lon="1.10536">
        <ele>1184.677</ele>
        <time>2021-07-22T10:10:27Z</time>
      </trkpt>
      <trkpt lat="42.07862" lon="1.10633">
        <ele>1187.863</ele>
        <time>2021-07-22T10:10:38Z</time>
      </trkpt>
      <trkpt lat="42.07698" lon="1.10725">
        <ele>1188.873</ele>
        <time>2021-07-22T10:10:49Z</time>
      </trkpt>
      <trkpt lat="42.07638" lon="1.10884">
        <ele>1189.655</ele>
        <time>2021-07-22T10:11:00Z</time>
      </trkpt>
      <trkpt lat="42.07696" lon="1.10931">
        <ele>1195.189</ele>
        <time>2021-07-22T10:11:11Z</time>
      </trkpt>
      <trkpt lat="42.07835" lon="1.10899">
        <ele>1205.107</ele>
        <time>2021-07-22T10:11:22Z</time>
      </trkpt>
      <trkpt lat="42.07977" lon="1.10845">
        <ele>1208.74</ele>
        <time>2021-07-22T10:11:33Z</time>
      </trkpt>
      <trkpt lat="42.08015" lon="1.1089">
        <ele>1209.776</ele>
        <time>2021-07-22T10:11:44Z</time>
      </trkpt>
      <trkpt lat="42.07915" lon="1.1104">
        <ele>1201.553</ele>
        <time>2021-07-22T10:11:55Z</time>
      </trkpt>
      <trkpt lat="42.07975" lon="1.11096">
        <ele>1206.833</ele>
        <time>2021-07-22T10:12:06Z</time>
      </trkpt>
      <trkpt lat="42.0813" lon="1.11083">
        <ele>1218.065</ele>
        <time>2021-07-22T10:12:17Z</time>
      </trkpt>
      <trkpt lat="42.08271" lon="1.1107">
        <ele>1227.868</ele>
        <time>2021-07-22T10:12:28Z</time>
      </trkpt>
      <trkpt lat="42.08398" lon="1.11123">
        <ele>1222.844</ele>
        <time>2021-07-22T10:12:39Z</time>
      </trkpt>
      <trkpt lat="42.08482" lon="1.11161">
        <ele>1221.351</ele>
        <time>2021-07-22T10:12:50Z</time>
      </trkpt>
      <trkpt lat="42.08562" lon="1.11246">
        <ele>1225.141</ele>
        <time>2021-07-22T10:13:01Z</time>
      </trkpt>
      <trkpt lat="42.08622" lon="1.11317">
        <ele>1224.749</ele>
        <time>2021-07-22T10:13:12Z</time>
      </trkpt>
      <trkpt lat="42.08502" lon="1.11443">
        <ele>1231.1</ele>
        <time>2021-07-22T10:13:23Z</time>
      </trkpt>
      <trkpt lat="42.08447" lon="1.11532">
        <ele>1235.68</ele>
        <time>2021-07-22T10:13:34Z</time>
      </trkpt>
      <trkpt lat="42.08517" lon="1.11621">
        <ele>1229.595</ele>
        <time>2021-07-22T10:13:45Z</time>
      </trkpt>
      <trkpt lat="42.08612" lon="1.11674">
        <ele>1224.51</ele>
        <time>2021-07-22T10:13:56Z</time>
      </trkpt>
      <trkpt lat="42.08726" lon="1.11679">
        <ele>1218.959</ele>
        <time>2021-07-22T10:14:07Z</time>
      </trkpt>
      <trkpt lat="42.08747" lon="1.11769">
        <ele>1214.155</ele>
        <time>2021-07-22T10:14:18Z</time>
      </trkpt>
      <trkpt lat="42.08667" lon="1.11892">
        <ele>1217.75</ele>
        <time>2021-07-22T10:14:29Z</time>
      </trkpt>
      <trkpt lat="42.08596" lon="1.12028">
        <ele>1224.618</ele>
        <time>2021-07-22T10:14:40Z</time>
      </trkpt>
      <trkpt lat="42.08718" lon="1.12021">
        <ele>1230.205</ele>
        <time>2021-07-22T10:14:51Z</time>
      </trkpt>
      <trkpt lat="42.08807" lon="1.12055">
        <ele>1233.983</ele>
        <time>2021-07-22T10:15:02Z</time>
      </trkpt>
      <trkpt lat="42.08802" lon="1.1222">
        <ele>1231.613</ele>
        <time>2021-07-22T10:15:13Z</time>
      </trkpt>
      <trkpt lat="42.08892" lon="1.12183">
        <ele>1229.995</ele>
        <time>2021-07-22T10:15:24Z</time>
      </trkpt>
      <trkpt lat="42.08974" lon="1.12123">
        <ele>1222.109</ele>
        <time>2021-07-22T10:15:35Z</time>
      </trkpt>
      <trkpt lat="42.09052" lon="1.12106">
        <ele>1212.139</ele>
        <time>2021-07-22T10:15:46Z</time>
      </trkpt>
      <trkpt lat="42.091" lon="1.12162">
        <ele>1210.634</ele>
        <time>2021-07-22T10:15:57Z</time>
      </trkpt>
      <trkpt lat="42.09053" lon="1.1227">
        <ele>1201.787</ele>
        <time>2021-07-22T10:16:08Z</time>
      </trkpt>
      <trkpt lat="42.0904" lon="1.12401">
        <ele>1187.423</ele>
        <time>2021-07-22T10:16:19Z</time>
      </trkpt>
      <trkpt lat="42.09045" lon="1.12526">
        <ele>1177.721</ele>
        <time>2021-07-22T10:16:30Z</time>
      </trkpt>
      <trkpt lat="42.09079" lon="1.12622">
        <ele>1170.668</ele>
        <time>2021-07-22T10:16:41Z</time>
      </trkpt>
      <trkpt lat="42.09157" lon="1.12663">
        <ele>1163.287</ele>
        <time>2021-07-22T10:16:52Z</time>
      </trkpt>
      <trkpt lat="42.09219" lon="1.12634">
        <ele>1161.084</ele>
        <time>2021-07-22T10:17:03Z</time>
      </trkpt>
      <trkpt lat="42.09255" lon="1.12696">
        <ele>1159.523</ele>
        <time>2021-07-22T10:17:14Z</time>
      </trkpt>
      <trkpt lat="42.09169" lon="1.12749">
        <ele>1162.431</ele>
        <time>2021-07-22T10:17:25Z</time>
      </trkpt>
      <trkpt lat="42.09088" lon="1.12792">
        <ele>1168.827</ele>
        <time>2021-07-22T10:17:36Z</time>
      </trkpt>
      <trkpt lat="42.08982" lon="1.12825">
        <ele>1178.519</ele>
        <time>2021-07-22T10:17:47Z</time>
      </trkpt>
      <trkpt lat="42.08876" lon="1.12902">
        <ele>1188.506</ele>
        <time>2021-07-22T10:17:58Z</time>
      </trkpt>
      <trkpt lat="42.08828" lon="1.13012">
        <ele>1199.061</ele>
        <time>2021-07-22T10:18:09Z</time>
      </trkpt>
      <trkpt lat="42.08854" lon="1.13128">
        <ele>1207.145</ele>
        <time>2021-07-22T10:18:20Z</time>
      </trkpt>
      <trkpt lat="42.08959" lon="1.13088">
        <ele>1206.26</ele>
        <time>2021-07-22T10:18:31Z</time>
      </trkpt>
      <trkpt lat="42.0908" lon="1.13061">
        <ele>1212.392</ele>
        <time>2021-07-22T10:18:42Z</time>
      </trkpt>
      <trkpt lat="42.09219" lon="1.13071">
        <ele>1219.758</ele>
        <time>2021-07-22T10:18:53Z</time>
      </trkpt>
      <trkpt lat="42.09297" lon="1.13173">
        <ele>1220.705</ele>
        <time>2021-07-22T10:19:04Z</time>
      </trkpt>
      <trkpt lat="42.09345" lon="1.13219">
        <ele>1228.784</ele>
        <time>2021-07-22T10:19:15Z</time>
      </trkpt>
      <trkpt lat="42.09415" lon="1.13139">
        <ele>1235.717</ele>
        <time>2021-07-22T10:19:26Z</time>
      </trkpt>
      <trkpt lat="42.09512" lon="1.13085">
        <ele>1241.066</ele>
        <time>2021-07-22T10:19:37Z</time>
      </trkpt>
      <trkpt lat="42.09605" lon="1.1307">
        <ele>1236.408</ele>
        <time>2021-07-22T10:19:48Z</time>
      </trkpt>
      <trkpt lat="42.09714" lon="1.13049">
        <ele>1248.449</ele>
        <time>2021-07-22T10:19:59Z</time>
      </trkpt>
      <trkpt lat="42.09844" lon="1.13011">
        <ele>1259.138</ele>
        <time>2021-07-22T10:20:10Z</time>
      </trkpt>
      <trkpt lat="42.0992" lon="1.13072">
        <ele>1262.69</ele>
        <time>2021-07-22T10:20:21Z</time>
      </trkpt>
      <trkpt lat="42.10014" lon="1.13039">
        <ele>1267.098</ele>
        <time>2021-07-22T10:20:32Z</time>
      </trkpt>
      <trkpt lat="42.10133" lon="1.13048">
        <ele>1269.594</ele>
        <time>2021-07-22T10:20:43Z</time>
      </trkpt>
      <trkpt lat="42.10197" lon="1.13147">
        <ele>1267.174</ele>
        <time>2021-07-22T10:20:54Z</time>
      </trkpt>
      <trkpt lat="42.10237" lon="1.13174">
        <ele>1273.453</ele>
        <time>2021-07-22T10:21:05Z</time>
      </trkpt>
      <trkpt lat="42.10349" lon="1.13162">
        <ele>1279.467</ele>
        <time>2021-07-22T10:21:16Z</time>
      </trkpt>
      <trkpt lat="42.10419" lon="1.13176">
        <ele>1276.217</ele>
        <time>2021-07-22T10:21:27Z</time>
      </trkpt>
      <trkpt lat="42.10466" lon="1.1321">
        <ele>1271.694</ele>
        <time>2021-07-22T10:21:38Z</time>
      </trkpt>
      <trkpt lat="42.10535" lon="1.13228">
        <ele>1261.181</ele>
        <time>2021-07-22T10:21:49Z</time>
      </trkpt>
      <trkpt lat="42.1055" lon="1.13315">
        <ele>1256.85</ele>
        <time>2021-07-22T10:22:00Z</time>
      </trkpt>
      <trkpt lat="42.1062" lon="1.1335">
        <ele>1247.321</ele>
        <time>2021-07-22T10:22:11Z</time>
      </trkpt>
      <trkpt lat="42.10669" lon="1.13387">
        <ele>1244.562</ele>
        <time>2021-07-22T10:22:22Z</time>
      </trkpt>
      <trkpt lat="42.10668" lon="1.13387">
        <ele>1245.314</ele>
        <time>2021-07-22T10:23:22Z</time>
      </trkpt>
      <trkpt lat="42.10672" lon="1.13386">
        <ele>1248.459</ele>
        <time>2021-07-22T10:23:37Z</time>
      </trkpt>
      <trkpt lat="42.10676" lon="1.13384">
        <ele>1251.762</ele>
        <time>2021-07-22T10:24:07Z</time>
      </trkpt>
      <trkpt lat="42.10672" lon="1.13385">
        <ele>1249.779</ele>
        <time>2021-07-22T10:24:25Z</time>
      </trkpt>
      <trkpt lat="42.10673" lon="1.13386">
        <ele>1249.15</ele>
        <time>2021-07-22T10:25:25Z</time>
      </trkpt>
      <trkpt lat="42.10675" lon="1.1339">
        <ele>1248.345</ele>
        <time>2021-07-22T10:25:38Z</time>
      </trkpt>
      <trkpt lat="42.10683" lon="1.13413">
        <ele>1243.763</ele>
        <time>2021-07-22T10:25:49Z</time>
      </trkpt>
      <trkpt lat="42.10692" lon="1.13433">
        <ele>1240.344</ele>
        <time>2021-07-22T10:26:00Z</time>
      </trkpt>
      <trkpt lat="42.10759" lon="1.13401">
        <ele>1240.756</ele>
        <time>2021-07-22T10:26:11Z</time>
      </trkpt>
      <trkpt lat="42.1084" lon="1.13388">
        <ele>1242.755</ele>
        <time>2021-07-22T10:26:22Z</time>
      </trkpt>
      <trkpt lat="42.10905" lon="1.13392">
        <ele>1248.55</ele>
        <time>2021-07-22T10:26:33Z</time>
      </trkpt>
      <trkpt lat="42.10986" lon="1.13438">
        <ele>1256.796</ele>
        <time>2021-07-22T10:26:44Z</time>
      </trkpt>
      <trkpt lat="42.10955" lon="1.13536">
        <ele>1255.464</ele>
        <time>2021-07-22T10:26:55Z</time>
      </trkpt>
      <trkpt lat="42.10963" lon="1.13639">
        <ele>1254.607</ele>
        <time>2021-07-22T10:27:06Z</time>
      </trkpt>
      <trkpt lat="42.10866" lon="1.13731">
        <ele>1251.077</ele>
        <time>2021-07-22T10:27:17Z</time>
      </trkpt>
      <trkpt lat="42.10782" lon="1.13834">
        <ele>1246.572</ele>
        <time>2021-07-22T10:27:28Z</time>
      </trkpt>
      <trkpt lat="42.10831" lon="1.13888">
        <ele>1244.301</ele>
        <time>2021-07-22T10:27:39Z</time>
      </trkpt>
      <trkpt lat="42.10936" lon="1.13911">
        <ele>1247.474</ele>
        <time>2021-07-22T10:27:50Z</time>
      </trkpt>
      <trkpt lat="42.11041" lon="1.13814">
        <ele>1252.919</ele>
        <time>2021-07-22T10:28:01Z</time>
      </trkpt>
      <trkpt lat="42.1113" lon="1.13723">
        <ele>1263.653</ele>
        <time>2021-07-22T10:28:12Z</time>
      </trkpt>
      <trkpt lat="42.11214" lon="1.13793">
        <ele>1264.73</ele>
        <time>2021-07-22T10:28:23Z</time>
      </trkpt>
      <trkpt lat="42.11315" lon="1.13785">
        <ele>1270.269</ele>
        <time>2021-07-22T10:28:34Z</time>
      </trkpt>
      <trkpt lat="42.11399" lon="1.13875">
        <ele>1273.894</ele>
        <time>2021-07-22T10:28:45Z</time>
      </trkpt>
      <trkpt lat="42.11497" lon="1.13852">
        <ele>1278.643</ele>
        <time>2021-07-22T10:28:56Z</time>
      </trkpt>
      <trkpt lat="42.11618" lon="1.13867">
        <ele>1286.473</ele>
        <time>2021-07-22T10:29:07Z</time>
      </trkpt>
      <trkpt lat="42.11713" lon="1.13856">
        <ele>1295.668</ele>
        <time>2021-07-22T10:29:18Z</time>
      </trkpt>
      <trkpt lat="42.11794" lon="1.13905">
        <ele>1296.827</ele>
        <time>2021-07-22T10:29:29Z</time>
      </trkpt>
      <trkpt lat="42.11884" lon="1.13987">
        <ele>1297.371</ele>
        <time>2021-07-22T10:29:40Z</time>
      </trkpt>
      <trkpt lat="42.11986" lon="1.14045">
        <ele>1290.915</ele>
        <time>2021-07-22T10:29:51Z</time>
      </trkpt>
      <trkpt lat="42.11915" lon="1.1411">
        <ele>1294.897</ele>
        <time>2021-07-22T10:30:02Z</time>
      </trkpt>
      <trkpt lat="42.11806" lon="1.14204">
        <ele>1296.874</ele>
        <time>2021-07-22T10:30:13Z</time>
      </trkpt>
      <trkpt lat="42.11837" lon="1.14291">
        <ele>1299.177</ele>
        <time>2021-07-22T10:30:24Z</time>
      </trkpt>
      <trkpt lat="42.11831" lon="1.14387">
        <ele>1296.07</ele>
        <time>2021-07-22T10:30:35Z</time>
      </trkpt>
      <trkpt lat="42.11744" lon="1.14475">
        <ele>1302.037</ele>
        <time>2021-07-22T10:30:46Z</time>
      </trkpt>
      <trkpt lat="42.11621" lon="1.14491">
        <ele>1296.604</ele>
        <time>2021-07-22T10:30:57Z</time>
      </trkpt>
      <trkpt lat="42.11542" lon="1.14578">
        <ele>1291.88</ele>
        <time>2021-07-22T10:31:08Z</time>
      </trkpt>
      <trkpt lat="42.11556" lon="1.1467">
        <ele>1292.781</ele>
        <time>2021-07-22T10:31:19Z</time>
      </trkpt>
      <trkpt lat="42.1162" lon="1.14694">
        <ele>1294.697</ele>
        <time>2021-07-22T10:31:30Z</time>
      </trkpt>
      <trkpt lat="42.11714" lon="1.14673">
        <ele>1303.22</ele>
        <time>2021-07-22T10:31:41Z</time>
      </trkpt>
      <trkpt lat="42.11808" lon="1.14634">
        <ele>1306.713</ele>
        <time>2021-07-22T10:31:52Z</time>
      </trkpt>
      <trkpt lat="42.11897" lon="1.14596">
        <ele>1317.925</ele>
        <time>2021-07-22T10:32:03Z</time>
      </trkpt>
      <trkpt lat="42.11999" lon="1.14579">
        <ele>1327.727</ele>
        <time>2021-07-22T10:32:14Z</time>
      </trkpt>
      <trkpt lat="42.12094" lon="1.14517">
        <ele>1336.982</ele>
        <time>2021-07-22T10:32:25Z</time>
      </trkpt>
      <trkpt lat="42.12176" lon="1.14456">
        <ele>1344.427</ele>
        <time>2021-07-22T10:32:36Z</time>
      </trkpt>
      <trkpt lat="42.12251" lon="1.1446">
        <ele>1352.788</ele>
        <time>2021-07-22T10:32:47Z</time>
      </trkpt>
      <trkpt lat="42.12283" lon="1.14517">
        <ele>1364.18</ele>
        <time>2021-07-22T10:32:58Z</time>
      </trkpt>
      <trkpt lat="42.12367" lon="1.14536">
        <ele>1373.665</ele>
        <time>2021-07-22T10:33:09Z</time>
      </trkpt>
      <trkpt lat="42.12449" lon="1.14528">
        <ele>1381.755</ele>
        <time>2021-07-22T10:33:20Z</time>
      </trkpt>
      <trkpt lat="42.12525" lon="1.14493">
        <ele>1387.248</ele>
        <time>2021-07-22T10:33:31Z</time>
      </trkpt>
      <trkpt lat="42.12609" lon="1.1443">
        <ele>1386.809</ele>
        <time>2021-07-22T10:33:42Z</time>
      </trkpt>
      <trkpt lat="42.12702" lon="1.14421">
        <ele>1392.836</ele>
        <time>2021-07-22T10:33:53Z</time>
      </trkpt>
      <trkpt lat="42.12762" lon="1.1435">
        <ele>1405.572</ele>
        <time>2021-07-22T10:34:04Z</time>
      </trkpt>
      <trkpt lat="42.12783" lon="1.1434">
        <ele>1414.106</ele>
        <time>2021-07-22T10:34:15Z</time>
      </trkpt>
      <trkpt lat="42.12786" lon="1.14344">
        <ele>1416.683</ele>
        <time>2021-07-22T10:34:26Z</time>
      </trkpt>
      <trkpt lat="42.12779" lon="1.1435">
        <ele>1414.127</ele>
        <time>2021-07-22T10:34:37Z</time>
      </trkpt>
      <trkpt lat="42.12747" lon="1.14373">
        <ele>1397.871</ele>
        <time>2021-07-22T10:34:48Z</time>
      </trkpt>
      <trkpt lat="42.12736" lon="1.14388">
        <ele>1398.366</ele>
        <time>2021-07-22T10:34:59Z</time>
      </trkpt>
      <trkpt lat="42.12738" lon="1.1439">
        <ele>1400.895</ele>
        <time>2021-07-22T10:35:59Z</time>
      </trkpt>
      <trkpt lat="42.12737" lon="1.14389">
        <ele>1400.196</ele>
        <time>2021-07-22T10:36:59Z</time>
      </trkpt>
      <trkpt lat="42.12736" lon="1.14391">
        <ele>1398.091</ele>
        <time>2021-07-22T10:37:59Z</time>
      </trkpt>
      <trkpt lat="42.12736" lon="1.14393">
        <ele>1403.367</ele>
        <time>2021-07-22T10:38:59Z</time>
      </trkpt>
      <trkpt lat="42.12737" lon="1.14388">
        <ele>1406.499</ele>
        <time>2021-07-22T10:39:50Z</time>
      </trkpt>
      <trkpt lat="42.12739" lon="1.14382">
        <ele>1405.903</ele>
        <time>2021-07-22T10:40:01Z</time>
      </trkpt>
      <trkpt lat="42.12758" lon="1.14356">
        <ele>1410.33</ele>
        <time>2021-07-22T10:40:12Z</time>
      </trkpt>
      <trkpt lat="42.12813" lon="1.14342">
        <ele>1422.859</ele>
        <time>2021-07-22T10:40:23Z</time>
      </trkpt>
      <trkpt lat="42.12818" lon="1.14416">
        <ele>1419.453</ele>
        <time>2021-07-22T10:40:34Z</time>
      </trkpt>
      <trkpt lat="42.12883" lon="1.14464">
        <ele>1418.744</ele>
        <time>2021-07-22T10:40:45Z</time>
      </trkpt>
      <trkpt lat="42.12954" lon="1.1447">
        <ele>1427.573</ele>
        <time>2021-07-22T10:40:56Z</time>
      </trkpt>
      <trkpt lat="42.13029" lon="1.14425">
        <ele>1438.163</ele>
        <time>2021-07-22T10:41:07Z</time>
      </trkpt>
      <trkpt lat="42.13068" lon="1.14486">
        <ele>1444.478</ele>
        <time>2021-07-22T10:41:18Z</time>
      </trkpt>
      <trkpt lat="42.13132" lon="1.1451">
        <ele>1450.087</ele>
        <time>2021-07-22T10:41:29Z</time>
      </trkpt>
      <trkpt lat="42.13141" lon="1.14519">
        <ele>1451.367</ele>
        <time>2021-07-22T10:41:40Z</time>
      </trkpt>
      <trkpt lat="42.13143" lon="1.14523">
        <ele>1452.765</ele>
        <time>2021-07-22T10:41:55Z</time>
      </trkpt>
      <trkpt lat="42.13145" lon="1.14518">
        <ele>1457.347</ele>
        <time>2021-07-22T10:42:14Z</time>
      </trkpt>
      <trkpt lat="42.13148" lon="1.14513">
        <ele>1459.656</ele>
        <time>2021-07-22T10:42:25Z</time>
      </trkpt>
      <trkpt lat="42.13152" lon="1.14511">
        <ele>1458.389</ele>
        <time>2021-07-22T10:42:36Z</time>
      </trkpt>
      <trkpt lat="42.13148" lon="1.14514">
        <ele>1456.328</ele>
        <time>2021-07-22T10:43:10Z</time>
      </trkpt>
      <trkpt lat="42.13144" lon="1.14515">
        <ele>1457.943</ele>
        <time>2021-07-22T10:43:25Z</time>
      </trkpt>
      <trkpt lat="42.13148" lon="1.14528">
        <ele>1459.07</ele>
        <time>2021-07-22T10:43:36Z</time>
      </trkpt>
      <trkpt lat="42.13198" lon="1.14605">
        <ele>1452.346</ele>
        <time>2021-07-22T10:43:47Z</time>
      </trkpt>
      <trkpt lat="42.13241" lon="1.14615">
        <ele>1446.122</ele>
        <time>2021-07-22T10:43:58Z</time>
      </trkpt>
      <trkpt lat="42.13304" lon="1.14561">
        <ele>1434.353</ele>
        <time>2021-07-22T10:44:09Z</time>
      </trkpt>
      <trkpt lat="42.13356" lon="1.14514">
        <ele>1431.082</ele>
        <time>2021-07-22T10:44:20Z</time>
      </trkpt>
      <trkpt lat="42.13413" lon="1.1448">
        <ele>1417.403</ele>
        <time>2021-07-22T10:44:31Z</time>
      </trkpt>
      <trkpt lat="42.13466" lon="1.14439">
        <ele>1412.88</ele>
        <time>2021-07-22T10:44:42Z</time>
      </trkpt>
      <trkpt lat="42.13507" lon="1.14398">
        <ele>1408.298</ele>
        <time>2021-07-22T10:44:53Z</time>
      </trkpt>
      <trkpt lat="42.13564" lon="1.14374">
        <ele>1407.403</ele>
        <time>2021-07-22T10:45:04Z</time>
      </trkpt>
      <trkpt lat="42.1362" lon="1.14369">
        <ele>1404.085</ele>
        <time>2021-07-22T10:45:15Z</time>
      </trkpt>
      <trkpt lat="42.1369" lon="1.14378">
        <ele>1383.719</ele>
        <time>2021-07-22T10:45:26Z</time>
      </trkpt>
      <trkpt lat="42.13642" lon="1.14391">
        <ele>1373.561</ele>
        <time>2021-07-22T10:45:37Z</time>
      </trkpt>
      <trkpt lat="42.13614" lon="1.14437">
        <ele>1369.873</ele>
        <time>2021-07-22T10:45:48Z</time>
      </trkpt>
      <trkpt lat="42.13667" lon="1.14443">
        <ele>1369.302</ele>
        <time>2021-07-22T10:45:59Z</time>
      </trkpt>
      <trkpt lat="42.13744" lon="1.14482">
        <ele>1369.732</ele>
        <time>2021-07-22T10:46:10Z</time>
      </trkpt>
      <trkpt lat="42.13792" lon="1.14512">
        <ele>1353.52</ele>
        <time>2021-07-22T10:46:21Z</time>
      </trkpt>
      <trkpt lat="42.13847" lon="1.14525">
        <ele>1335.315</ele>
        <time>2021-07-22T10:46:32Z</time>
      </trkpt>
      <trkpt lat="42.13905" lon="1.14521">
        <ele>1332.421</ele>
        <time>2021-07-22T10:46:43Z</time>
      </trkpt>
      <trkpt lat="42.13966" lon="1.14499">
        <ele>1323.348</ele>
        <time>2021-07-22T10:46:54Z</time>
      </trkpt>
      <trkpt lat="42.14042" lon="1.14479">
        <ele>1312.156</ele>
        <time>2021-07-22T10:47:05Z</time>
      </trkpt>
      <trkpt lat="42.14129" lon="1.14477">
        <ele>1303.369</ele>
        <time>2021-07-22T10:47:16Z</time>
      </trkpt>
      <trkpt lat="42.1417" lon="1.14439">
        <ele>1296.644</ele>
        <time>2021-07-22T10:47:27Z</time>
      </trkpt>
      <trkpt lat="42.14168" lon="1.14323">
        <ele>1288.246</ele>
        <time>2021-07-22T10:47:38Z</time>
      </trkpt>
      <trkpt lat="42.14124" lon="1.14217">
        <ele>1282.054</ele>
        <time>2021-07-22T10:47:49Z</time>
      </trkpt>
      <trkpt lat="42.14129" lon="1.14146">
        <ele>1281.274</ele>
        <time>2021-07-22T10:48:00Z</time>
      </trkpt>
      <trkpt lat="42.14244" lon="1.14155">
        <ele>1276.073</ele>
        <time>2021-07-22T10:48:12Z</time>
      </trkpt>
      <trkpt lat="42.1434" lon="1.14195">
        <ele>1279.403</ele>
        <time>2021-07-22T10:48:23Z</time>
      </trkpt>
      <trkpt lat="42.14416" lon="1.14219">
        <ele>1275.121</ele>
        <time>2021-07-22T10:48:34Z</time>
      </trkpt>
      <trkpt lat="42.1448" lon="1.14165">
        <ele>1271.643</ele>
        <time>2021-07-22T10:48:45Z</time>
      </trkpt>
      <trkpt lat="42.14509" lon="1.14121">
        <ele>1270.216</ele>
        <time>2021-07-22T10:48:56Z</time>
      </trkpt>
      <trkpt lat="42.14512" lon="1.1412">
        <ele>1266.637</ele>
        <time>2021-07-22T10:49:49Z</time>
      </trkpt>
      <trkpt lat="42.1452" lon="1.14121">
        <ele>1265.924</ele>
        <time>2021-07-22T10:50:00Z</time>
      </trkpt>
      <trkpt lat="42.14579" lon="1.14148">
        <ele>1255.583</ele>
        <time>2021-07-22T10:50:11Z</time>
      </trkpt>
      <trkpt lat="42.14611" lon="1.14264">
        <ele>1250.127</ele>
        <time>2021-07-22T10:50:22Z</time>
      </trkpt>
      <trkpt lat="42.14674" lon="1.14281">
        <ele>1253.344</ele>
        <time>2021-07-22T10:50:33Z</time>
      </trkpt>
      <trkpt lat="42.14756" lon="1.14327">
        <ele>1243.951</ele>
        <time>2021-07-22T10:50:44Z</time>
      </trkpt>
      <trkpt lat="42.14851" lon="1.14343">
        <ele>1240.518</ele>
        <time>2021-07-22T10:50:55Z</time>
      </trkpt>
      <trkpt lat="42.14914" lon="1.1425">
        <ele>1240.749</ele>
        <time>2021-07-22T10:51:06Z</time>
      </trkpt>
      <trkpt lat="42.1497" lon="1.14347">
        <ele>1244.221</ele>
        <time>2021-07-22T10:51:17Z</time>
      </trkpt>
      <trkpt lat="42.15046" lon="1.14403">
        <ele>1240.122</ele>
        <time>2021-07-22T10:51:28Z</time>
      </trkpt>
      <trkpt lat="42.15118" lon="1.14468">
        <ele>1244.422</ele>
        <time>2021-07-22T10:51:39Z</time>
      </trkpt>
      <trkpt lat="42.1519" lon="1.14542">
        <ele>1255.617</ele>
        <time>2021-07-22T10:51:50Z</time>
      </trkpt>
      <trkpt lat="42.15292" lon="1.14525">
        <ele>1253.642</ele>
        <time>2021-07-22T10:52:01Z</time>
      </trkpt>
      <trkpt lat="42.15385" lon="1.14613">
        <ele>1261.368</ele>
        <time>2021-07-22T10:52:12Z</time>
      </trkpt>
      <trkpt lat="42.15432" lon="1.14623">
        <ele>1267.382</ele>
        <time>2021-07-22T10:52:23Z</time>
      </trkpt>
      <trkpt lat="42.15502" lon="1.14571">
        <ele>1277.068</ele>
        <time>2021-07-22T10:52:34Z</time>
      </trkpt>
      <trkpt lat="42.15565" lon="1.14508">
        <ele>1261.261</ele>
        <time>2021-07-22T10:52:45Z</time>
      </trkpt>
      <trkpt lat="42.1563" lon="1.14352">
        <ele>1241.401</ele>
        <time>2021-07-22T10:52:56Z</time>
      </trkpt>
      <trkpt lat="42.15662" lon="1.1425">
        <ele>1237.629</ele>
        <time>2021-07-22T10:53:07Z</time>
      </trkpt>
      <trkpt lat="42.1568" lon="1.14152">
        <ele>1238.036</ele>
        <time>2021-07-22T10:53:18Z</time>
      </trkpt>
      <trkpt lat="42.15674" lon="1.14148">
        <ele>1238.211</ele>
        <time>2021-07-22T10:53:29Z</time>
      </trkpt>
      <trkpt lat="42.1568" lon="1.14149">
        <ele>1235.202</ele>
        <time>2021-07-22T10:54:05Z</time>
      </trkpt>
      <trkpt lat="42.15676" lon="1.14149">
        <ele>1236.713</ele>
        <time>2021-07-22T10:54:26Z</time>
      </trkpt>
      <trkpt lat="42.15673" lon="1.14149">
        <ele>1237.649</ele>
        <time>2021-07-22T10:54:46Z</time>
      </trkpt>
      <trkpt lat="42.15676" lon="1.14149">
        <ele>1238.105</ele>
        <time>2021-07-22T10:55:40Z</time>
      </trkpt>
      <trkpt lat="42.15675" lon="1.14149">
        <ele>1237.686</ele>
        <time>2021-07-22T10:56:40Z</time>
      </trkpt>
      <trkpt lat="42.15675" lon="1.14148">
        <ele>1237.543</ele>
        <time>2021-07-22T10:57:39Z</time>
      </trkpt>
      <trkpt lat="42.15674" lon="1.14148">
        <ele>1237.553</ele>
        <time>2021-07-22T10:58:39Z</time>
      </trkpt>
      <trkpt lat="42.15676" lon="1.14149">
        <ele>1237.683</ele>
        <time>2021-07-22T10:59:38Z</time>
      </trkpt>
      <trkpt lat="42.15673" lon="1.14149">
        <ele>1237.663</ele>
        <time>2021-07-22T11:00:38Z</time>
      </trkpt>
      <trkpt lat="42.15674" lon="1.14149">
        <ele>1238.448</ele>
        <time>2021-07-22T11:01:38Z</time>
      </trkpt>
      <trkpt lat="42.15675" lon="1.1415">
        <ele>1236.289</ele>
        <time>2021-07-22T11:02:38Z</time>
      </trkpt>
      <trkpt lat="42.15679" lon="1.14147">
        <ele>1236.157</ele>
        <time>2021-07-22T11:03:27Z</time>
      </trkpt>
      <trkpt lat="42.15677" lon="1.1415">
        <ele>1238.503</ele>
        <time>2021-07-22T11:04:26Z</time>
      </trkpt>
      <trkpt lat="42.15673" lon="1.1415">
        <ele>1238.13</ele>
        <time>2021-07-22T11:04:56Z</time>
      </trkpt>
      <trkpt lat="42.15677" lon="1.14149">
        <ele>1237.913</ele>
        <time>2021-07-22T11:05:25Z</time>
      </trkpt>
      <trkpt lat="42.15677" lon="1.1415">
        <ele>1237.404</ele>
        <time>2021-07-22T11:06:24Z</time>
      </trkpt>
      <trkpt lat="42.15673" lon="1.14151">
        <ele>1239.343</ele>
        <time>2021-07-22T11:06:40Z</time>
      </trkpt>
      <trkpt lat="42.15677" lon="1.1415">
        <ele>1238.57</ele>
        <time>2021-07-22T11:07:31Z</time>
      </trkpt>
      <trkpt lat="42.15674" lon="1.14151">
        <ele>1237.628</ele>
        <time>2021-07-22T11:08:30Z</time>
      </trkpt>
      <trkpt lat="42.15677" lon="1.14149">
        <ele>1237.879</ele>
        <time>2021-07-22T11:08:53Z</time>
      </trkpt>
      <trkpt lat="42.15679" lon="1.14145">
        <ele>1237.009</ele>
        <time>2021-07-22T11:09:36Z</time>
      </trkpt>
      <trkpt lat="42.15674" lon="1.14148">
        <ele>1237.595</ele>
        <time>2021-07-22T11:09:47Z</time>
      </trkpt>
      <trkpt lat="42.15678" lon="1.14149">
        <ele>1238.554</ele>
        <time>2021-07-22T11:10:25Z</time>
      </trkpt>
      <trkpt lat="42.15683" lon="1.14148">
        <ele>1237.413</ele>
        <time>2021-07-22T11:10:54Z</time>
      </trkpt>
      <trkpt lat="42.15678" lon="1.14149">
        <ele>1239.307</ele>
        <time>2021-07-22T11:11:05Z</time>
      </trkpt>
      <trkpt lat="42.15674" lon="1.14148">
        <ele>1238.072</ele>
        <time>2021-07-22T11:11:17Z</time>
      </trkpt>
      <trkpt lat="42.15671" lon="1.14151">
        <ele>1240</ele>
        <time>2021-07-22T11:11:45Z</time>
      </trkpt>
      <trkpt lat="42.15673" lon="1.14149">
        <ele>1239.07</ele>
        <time>2021-07-22T11:12:44Z</time>
      </trkpt>
      <trkpt lat="42.15676" lon="1.1415">
        <ele>1238.375</ele>
        <time>2021-07-22T11:13:13Z</time>
      </trkpt>
      <trkpt lat="42.1568" lon="1.14146">
        <ele>1238.762</ele>
        <time>2021-07-22T11:13:24Z</time>
      </trkpt>
      <trkpt lat="42.1568" lon="1.14146">
        <ele>1238.762</ele>
        <time>2021-07-22T11:14:23Z</time>
      </trkpt>
      <trkpt lat="42.1568" lon="1.14146">
        <ele>1238.762</ele>
        <time>2021-07-22T11:15:23Z</time>
      </trkpt>
      <trkpt lat="42.1568" lon="1.14146">
        <ele>1238.762</ele>
        <time>2021-07-22T11:16:22Z</time>
      </trkpt>
      <trkpt lat="42.15685" lon="1.14146">
        <ele>1237.207</ele>
        <time>2021-07-22T11:17:04Z</time>
      </trkpt>
      <trkpt lat="42.15683" lon="1.14147">
        <ele>1238.066</ele>
        <time>2021-07-22T11:18:03Z</time>
      </trkpt>
      <trkpt lat="42.15679" lon="1.1415">
        <ele>1239.344</ele>
        <time>2021-07-22T11:18:56Z</time>
      </trkpt>
      <trkpt lat="42.15678" lon="1.14149">
        <ele>1239.155</ele>
        <time>2021-07-22T11:19:55Z</time>
      </trkpt>
      <trkpt lat="42.15678" lon="1.1415">
        <ele>1236.638</ele>
        <time>2021-07-22T11:20:54Z</time>
      </trkpt>
      <trkpt lat="42.15676" lon="1.14152">
        <ele>1235.789</ele>
        <time>2021-07-22T11:21:53Z</time>
      </trkpt>
      <trkpt lat="42.15686" lon="1.14134">
        <ele>1235.091</ele>
        <time>2021-07-22T11:22:04Z</time>
      </trkpt>
      <trkpt lat="42.15638" lon="1.14007">
        <ele>1234.733</ele>
        <time>2021-07-22T11:22:15Z</time>
      </trkpt>
      <trkpt lat="42.15557" lon="1.1385">
        <ele>1229.243</ele>
        <time>2021-07-22T11:22:26Z</time>
      </trkpt>
      <trkpt lat="42.15454" lon="1.13704">
        <ele>1224.089</ele>
        <time>2021-07-22T11:22:37Z</time>
      </trkpt>
      <trkpt lat="42.15447" lon="1.13521">
        <ele>1214.602</ele>
        <time>2021-07-22T11:22:48Z</time>
      </trkpt>
      <trkpt lat="42.15385" lon="1.13348">
        <ele>1205.158</ele>
        <time>2021-07-22T11:22:59Z</time>
      </trkpt>
      <trkpt lat="42.15319" lon="1.13131">
        <ele>1201.053</ele>
        <time>2021-07-22T11:23:10Z</time>
      </trkpt>
      <trkpt lat="42.15255" lon="1.1291">
        <ele>1186.428</ele>
        <time>2021-07-22T11:23:21Z</time>
      </trkpt>
      <trkpt lat="42.15235" lon="1.12682">
        <ele>1174.302</ele>
        <time>2021-07-22T11:23:32Z</time>
      </trkpt>
      <trkpt lat="42.15146" lon="1.12405">
        <ele>1166.661</ele>
        <time>2021-07-22T11:23:43Z</time>
      </trkpt>
      <trkpt lat="42.15034" lon="1.12203">
        <ele>1157.945</ele>
        <time>2021-07-22T11:23:54Z</time>
      </trkpt>
      <trkpt lat="42.14931" lon="1.1202">
        <ele>1153.953</ele>
        <time>2021-07-22T11:24:05Z</time>
      </trkpt>
      <trkpt lat="42.14839" lon="1.1182">
        <ele>1147.496</ele>
        <time>2021-07-22T11:24:16Z</time>
      </trkpt>
      <trkpt lat="42.14711" lon="1.11613">
        <ele>1143.125</ele>
        <time>2021-07-22T11:24:27Z</time>
      </trkpt>
      <trkpt lat="42.14631" lon="1.11361">
        <ele>1133.329</ele>
        <time>2021-07-22T11:24:38Z</time>
      </trkpt>
      <trkpt lat="42.14524" lon="1.11334">
        <ele>1128.311</ele>
        <time>2021-07-22T11:24:49Z</time>
      </trkpt>
      <trkpt lat="42.14479" lon="1.11341">
        <ele>1123.341</ele>
        <time>2021-07-22T11:25:00Z</time>
      </trkpt>
      <trkpt lat="42.14414" lon="1.11129">
        <ele>1115.759</ele>
        <time>2021-07-22T11:25:11Z</time>
      </trkpt>
      <trkpt lat="42.14355" lon="1.10955">
        <ele>1109.832</ele>
        <time>2021-07-22T11:25:22Z</time>
      </trkpt>
      <trkpt lat="42.14236" lon="1.10777">
        <ele>1100.923</ele>
        <time>2021-07-22T11:25:33Z</time>
      </trkpt>
      <trkpt lat="42.14206" lon="1.10617">
        <ele>1094.437</ele>
        <time>2021-07-22T11:25:44Z</time>
      </trkpt>
      <trkpt lat="42.14188" lon="1.10469">
        <ele>1091.06</ele>
        <time>2021-07-22T11:25:55Z</time>
      </trkpt>
      <trkpt lat="42.14082" lon="1.10362">
        <ele>1083.648</ele>
        <time>2021-07-22T11:26:06Z</time>
      </trkpt>
      <trkpt lat="42.14085" lon="1.10224">
        <ele>1073.264</ele>
        <time>2021-07-22T11:26:17Z</time>
      </trkpt>
      <trkpt lat="42.14013" lon="1.10068">
        <ele>1065.539</ele>
        <time>2021-07-22T11:26:28Z</time>
      </trkpt>
      <trkpt lat="42.13896" lon="1.0997">
        <ele>1058.53</ele>
        <time>2021-07-22T11:26:39Z</time>
      </trkpt>
      <trkpt lat="42.13791" lon="1.09839">
        <ele>1048.189</ele>
        <time>2021-07-22T11:26:50Z</time>
      </trkpt>
      <trkpt lat="42.13734" lon="1.09918">
        <ele>1042.837</ele>
        <time>2021-07-22T11:27:01Z</time>
      </trkpt>
      <trkpt lat="42.13783" lon="1.10203">
        <ele>1032.581</ele>
        <time>2021-07-22T11:27:12Z</time>
      </trkpt>
      <trkpt lat="42.1382" lon="1.10432">
        <ele>1020.871</ele>
        <time>2021-07-22T11:27:23Z</time>
      </trkpt>
      <trkpt lat="42.13884" lon="1.10579">
        <ele>1009.455</ele>
        <time>2021-07-22T11:27:34Z</time>
      </trkpt>
      <trkpt lat="42.13869" lon="1.10618">
        <ele>1005.004</ele>
        <time>2021-07-22T11:27:45Z</time>
      </trkpt>
      <trkpt lat="42.13745" lon="1.1059">
        <ele>995.9712</ele>
        <time>2021-07-22T11:27:56Z</time>
      </trkpt>
      <trkpt lat="42.13731" lon="1.10462">
        <ele>984.6582</ele>
        <time>2021-07-22T11:28:07Z</time>
      </trkpt>
      <trkpt lat="42.13655" lon="1.10337">
        <ele>979.2355</ele>
        <time>2021-07-22T11:28:18Z</time>
      </trkpt>
      <trkpt lat="42.1362" lon="1.10209">
        <ele>968.8617</ele>
        <time>2021-07-22T11:28:29Z</time>
      </trkpt>
      <trkpt lat="42.13593" lon="1.10175">
        <ele>961.3985</ele>
        <time>2021-07-22T11:28:40Z</time>
      </trkpt>
      <trkpt lat="42.1356" lon="1.10342">
        <ele>949.7799</ele>
        <time>2021-07-22T11:28:51Z</time>
      </trkpt>
      <trkpt lat="42.13517" lon="1.1037">
        <ele>937.4733</ele>
        <time>2021-07-22T11:29:02Z</time>
      </trkpt>
      <trkpt lat="42.13502" lon="1.10206">
        <ele>928.0291</ele>
        <time>2021-07-22T11:29:13Z</time>
      </trkpt>
      <trkpt lat="42.13443" lon="1.10071">
        <ele>916.7976</ele>
        <time>2021-07-22T11:29:24Z</time>
      </trkpt>
      <trkpt lat="42.13363" lon="1.0995">
        <ele>911.9018</ele>
        <time>2021-07-22T11:29:35Z</time>
      </trkpt>
      <trkpt lat="42.13283" lon="1.09791">
        <ele>900.1874</ele>
        <time>2021-07-22T11:29:46Z</time>
      </trkpt>
      <trkpt lat="42.13245" lon="1.0956">
        <ele>891.3835</ele>
        <time>2021-07-22T11:29:57Z</time>
      </trkpt>
      <trkpt lat="42.13233" lon="1.09335">
        <ele>881.1219</ele>
        <time>2021-07-22T11:30:08Z</time>
      </trkpt>
      <trkpt lat="42.13257" lon="1.09142">
        <ele>868.9649</ele>
        <time>2021-07-22T11:30:19Z</time>
      </trkpt>
      <trkpt lat="42.13231" lon="1.08909">
        <ele>858.3371</ele>
        <time>2021-07-22T11:30:30Z</time>
      </trkpt>
      <trkpt lat="42.13207" lon="1.08661">
        <ele>848.4403</ele>
        <time>2021-07-22T11:30:41Z</time>
      </trkpt>
      <trkpt lat="42.13205" lon="1.08434">
        <ele>836.4699</ele>
        <time>2021-07-22T11:30:52Z</time>
      </trkpt>
      <trkpt lat="42.13266" lon="1.08298">
        <ele>826.3805</ele>
        <time>2021-07-22T11:31:03Z</time>
      </trkpt>
      <trkpt lat="42.13312" lon="1.08084">
        <ele>814.0675</ele>
        <time>2021-07-22T11:31:14Z</time>
      </trkpt>
      <trkpt lat="42.13417" lon="1.07997">
        <ele>803.9389</ele>
        <time>2021-07-22T11:31:25Z</time>
      </trkpt>
      <trkpt lat="42.1334" lon="1.07782">
        <ele>793.6021</ele>
        <time>2021-07-22T11:31:36Z</time>
      </trkpt>
      <trkpt lat="42.13382" lon="1.07573">
        <ele>784.134</ele>
        <time>2021-07-22T11:31:47Z</time>
      </trkpt>
      <trkpt lat="42.13291" lon="1.07355">
        <ele>776.6089</ele>
        <time>2021-07-22T11:31:58Z</time>
      </trkpt>
      <trkpt lat="42.13175" lon="1.07139">
        <ele>769.2937</ele>
        <time>2021-07-22T11:32:09Z</time>
      </trkpt>
      <trkpt lat="42.13038" lon="1.06886">
        <ele>754.3583</ele>
        <time>2021-07-22T11:32:20Z</time>
      </trkpt>
      <trkpt lat="42.12897" lon="1.06623">
        <ele>744.8371</ele>
        <time>2021-07-22T11:32:31Z</time>
      </trkpt>
      <trkpt lat="42.12756" lon="1.06363">
        <ele>734.7576</ele>
        <time>2021-07-22T11:32:42Z</time>
      </trkpt>
      <trkpt lat="42.12619" lon="1.06101">
        <ele>720.845</ele>
        <time>2021-07-22T11:32:53Z</time>
      </trkpt>
      <trkpt lat="42.1248" lon="1.05844">
        <ele>713.3306</ele>
        <time>2021-07-22T11:33:04Z</time>
      </trkpt>
      <trkpt lat="42.12339" lon="1.05583">
        <ele>704.9997</ele>
        <time>2021-07-22T11:33:15Z</time>
      </trkpt>
      <trkpt lat="42.12207" lon="1.05338">
        <ele>694.7471</ele>
        <time>2021-07-22T11:33:26Z</time>
      </trkpt>
      <trkpt lat="42.12102" lon="1.05137">
        <ele>683.6114</ele>
        <time>2021-07-22T11:33:37Z</time>
      </trkpt>
      <trkpt lat="42.12025" lon="1.04971">
        <ele>674.1712</ele>
        <time>2021-07-22T11:33:48Z</time>
      </trkpt>
      <trkpt lat="42.12007" lon="1.04781">
        <ele>674.7796</ele>
        <time>2021-07-22T11:33:59Z</time>
      </trkpt>
      <trkpt lat="42.11929" lon="1.04626">
        <ele>671.0087</ele>
        <time>2021-07-22T11:34:10Z</time>
      </trkpt>
      <trkpt lat="42.11879" lon="1.04542">
        <ele>663.2714</ele>
        <time>2021-07-22T11:34:21Z</time>
      </trkpt>
      <trkpt lat="42.11837" lon="1.04486">
        <ele>665.0397</ele>
        <time>2021-07-22T11:34:32Z</time>
      </trkpt>
      <trkpt lat="42.11851" lon="1.04428">
        <ele>661.665</ele>
        <time>2021-07-22T11:34:43Z</time>
      </trkpt>
      <trkpt lat="42.11854" lon="1.04334">
        <ele>650.95</ele>
        <time>2021-07-22T11:34:54Z</time>
      </trkpt>
      <trkpt lat="42.11839" lon="1.04263">
        <ele>644.2116</ele>
        <time>2021-07-22T11:35:05Z</time>
      </trkpt>
      <trkpt lat="42.11838" lon="1.04264">
        <ele>642.3155</ele>
        <time>2021-07-22T11:36:04Z</time>
      </trkpt>
      <trkpt lat="42.11836" lon="1.04263">
        <ele>645.28</ele>
        <time>2021-07-22T11:37:03Z</time>
      </trkpt>
      <trkpt lat="42.11836" lon="1.04258">
        <ele>647.3136</ele>
        <time>2021-07-22T11:37:57Z</time>
      </trkpt>
      <trkpt lat="42.1184" lon="1.04219">
        <ele>644.3281</ele>
        <time>2021-07-22T11:38:08Z</time>
      </trkpt>
      <trkpt lat="42.1182" lon="1.04207">
        <ele>642.2892</ele>
        <time>2021-07-22T11:38:19Z</time>
      </trkpt>
      <trkpt lat="42.11792" lon="1.04233">
        <ele>641.4208</ele>
        <time>2021-07-22T11:38:30Z</time>
      </trkpt>
      <trkpt lat="42.11772" lon="1.04228">
        <ele>639.8896</ele>
        <time>2021-07-22T11:38:41Z</time>
      </trkpt>
      <trkpt lat="42.11745" lon="1.04214">
        <ele>638.3985</ele>
        <time>2021-07-22T11:38:52Z</time>
      </trkpt>
      <trkpt lat="42.11665" lon="1.04033">
        <ele>630.2929</ele>
        <time>2021-07-22T11:39:03Z</time>
      </trkpt>
      <trkpt lat="42.11518" lon="1.03956">
        <ele>629.7624</ele>
        <time>2021-07-22T11:39:14Z</time>
      </trkpt>
      <trkpt lat="42.11361" lon="1.0399">
        <ele>614.1222</ele>
        <time>2021-07-22T11:39:25Z</time>
      </trkpt>
      <trkpt lat="42.11317" lon="1.03897">
        <ele>609.4561</ele>
        <time>2021-07-22T11:39:36Z</time>
      </trkpt>
      <trkpt lat="42.11317" lon="1.03696">
        <ele>601.0461</ele>
        <time>2021-07-22T11:39:47Z</time>
      </trkpt>
      <trkpt lat="42.11294" lon="1.03466">
        <ele>592.9295</ele>
        <time>2021-07-22T11:39:58Z</time>
      </trkpt>
      <trkpt lat="42.11178" lon="1.03276">
        <ele>584.6971</ele>
        <time>2021-07-22T11:40:09Z</time>
      </trkpt>
      <trkpt lat="42.11054" lon="1.0314">
        <ele>576.3018</ele>
        <time>2021-07-22T11:40:20Z</time>
      </trkpt>
      <trkpt lat="42.10974" lon="1.03055">
        <ele>570.5254</ele>
        <time>2021-07-22T11:40:31Z</time>
      </trkpt>
      <trkpt lat="42.10968" lon="1.0305">
        <ele>570.1625</ele>
        <time>2021-07-22T11:41:18Z</time>
      </trkpt>
      <trkpt lat="42.10889" lon="1.02951">
        <ele>562.4197</ele>
        <time>2021-07-22T11:41:29Z</time>
      </trkpt>
      <trkpt lat="42.1084" lon="1.02834">
        <ele>557.6916</ele>
        <time>2021-07-22T11:41:40Z</time>
      </trkpt>
      <trkpt lat="42.10818" lon="1.02689">
        <ele>552.5027</ele>
        <time>2021-07-22T11:41:51Z</time>
      </trkpt>
      <trkpt lat="42.10835" lon="1.02543">
        <ele>546.4062</ele>
        <time>2021-07-22T11:42:02Z</time>
      </trkpt>
      <trkpt lat="42.10882" lon="1.02424">
        <ele>541.6045</ele>
        <time>2021-07-22T11:42:13Z</time>
      </trkpt>
      <trkpt lat="42.10951" lon="1.02304">
        <ele>537.2388</ele>
        <time>2021-07-22T11:42:24Z</time>
      </trkpt>
      <trkpt lat="42.11074" lon="1.02095">
        <ele>528.1737</ele>
        <time>2021-07-22T11:42:35Z</time>
      </trkpt>
      <trkpt lat="42.11223" lon="1.01841">
        <ele>536.1005</ele>
        <time>2021-07-22T11:42:46Z</time>
      </trkpt>
      <trkpt lat="42.11296" lon="1.01495">
        <ele>539.0461</ele>
        <time>2021-07-22T11:42:57Z</time>
      </trkpt>
      <trkpt lat="42.11347" lon="1.01169">
        <ele>533.6912</ele>
        <time>2021-07-22T11:43:08Z</time>
      </trkpt>
      <trkpt lat="42.11462" lon="1.00905">
        <ele>532.9651</ele>
        <time>2021-07-22T11:43:19Z</time>
      </trkpt>
      <trkpt lat="42.11574" lon="1.00605">
        <ele>529.2487</ele>
        <time>2021-07-22T11:43:30Z</time>
      </trkpt>
      <trkpt lat="42.11647" lon="1.00279">
        <ele>526.6607</ele>
        <time>2021-07-22T11:43:41Z</time>
      </trkpt>
      <trkpt lat="42.11673" lon="0.99943">
        <ele>528.9325</ele>
        <time>2021-07-22T11:43:52Z</time>
      </trkpt>
      <trkpt lat="42.11728" lon="0.99619">
        <ele>539.1677</ele>
        <time>2021-07-22T11:44:03Z</time>
      </trkpt>
      <trkpt lat="42.11938" lon="0.99448">
        <ele>541.5713</ele>
        <time>2021-07-22T11:44:14Z</time>
      </trkpt>
      <trkpt lat="42.1221" lon="0.9937">
        <ele>533.1989</ele>
        <time>2021-07-22T11:44:25Z</time>
      </trkpt>
      <trkpt lat="42.12435" lon="0.99179">
        <ele>526.0415</ele>
        <time>2021-07-22T11:44:36Z</time>
      </trkpt>
      <trkpt lat="42.12688" lon="0.9915">
        <ele>516.073</ele>
        <time>2021-07-22T11:44:47Z</time>
      </trkpt>
      <trkpt lat="42.129" lon="0.99039">
        <ele>513.9444</ele>
        <time>2021-07-22T11:44:58Z</time>
      </trkpt>
      <trkpt lat="42.13076" lon="0.98852">
        <ele>523.1432</ele>
        <time>2021-07-22T11:45:09Z</time>
      </trkpt>
      <trkpt lat="42.13183" lon="0.98759">
        <ele>528.2259</ele>
        <time>2021-07-22T11:45:20Z</time>
      </trkpt>
      <trkpt lat="42.13178" lon="0.98822">
        <ele>529.4355</ele>
        <time>2021-07-22T11:45:31Z</time>
      </trkpt>
      <trkpt lat="42.1318" lon="0.98828">
        <ele>528.0084</ele>
        <time>2021-07-22T11:45:42Z</time>
      </trkpt>
      <trkpt lat="42.13182" lon="0.98832">
        <ele>525.1349</ele>
        <time>2021-07-22T11:46:31Z</time>
      </trkpt>
      <trkpt lat="42.13182" lon="0.98836">
        <ele>526.292</ele>
        <time>2021-07-22T11:47:31Z</time>
      </trkpt>
      <trkpt lat="42.13181" lon="0.98838">
        <ele>525.6731</ele>
        <time>2021-07-22T11:48:31Z</time>
      </trkpt>
      <trkpt lat="42.13181" lon="0.98836">
        <ele>523.1935</ele>
        <time>2021-07-22T11:49:31Z</time>
      </trkpt>
      <trkpt lat="42.13181" lon="0.98836">
        <ele>523.0569</ele>
        <time>2021-07-22T11:50:31Z</time>
      </trkpt>
      <trkpt lat="42.13183" lon="0.98833">
        <ele>521.3189</ele>
        <time>2021-07-22T11:51:31Z</time>
      </trkpt>
      <trkpt lat="42.13183" lon="0.98834">
        <ele>522.181</ele>
        <time>2021-07-22T11:52:31Z</time>
      </trkpt>
      <trkpt lat="42.13182" lon="0.98833">
        <ele>520.6075</ele>
        <time>2021-07-22T11:53:31Z</time>
      </trkpt>
      <trkpt lat="42.13182" lon="0.98833">
        <ele>520.6077</ele>
        <time>2021-07-22T11:54:31Z</time>
      </trkpt>
      <trkpt lat="42.13183" lon="0.98834">
        <ele>522.2252</ele>
        <time>2021-07-22T11:55:31Z</time>
      </trkpt>
      <trkpt lat="42.13183" lon="0.98834">
        <ele>522.2252</ele>
        <time>2021-07-22T11:56:31Z</time>
      </trkpt>
      <trkpt lat="42.13183" lon="0.98834">
        <ele>522.2252</ele>
        <time>2021-07-22T11:57:31Z</time>
      </trkpt>
      <trkpt lat="42.13183" lon="0.98834">
        <ele>522.2252</ele>
        <time>2021-07-22T11:58:31Z</time>
      </trkpt>
      <trkpt lat="42.1318" lon="0.9884">
        <ele>522.5938</ele>
        <time>2021-07-22T11:58:59Z</time>
      </trkpt>
      <trkpt lat="42.13186" lon="0.98851">
        <ele>522.7169</ele>
        <time>2021-07-22T11:59:10Z</time>
      </trkpt>
      <trkpt lat="42.13186" lon="0.98855">
        <ele>523.6706</ele>
        <time>2021-07-22T12:00:10Z</time>
      </trkpt>
      <trkpt lat="42.13186" lon="0.98855">
        <ele>523.6706</ele>
        <time>2021-07-22T12:01:10Z</time>
      </trkpt>
      <trkpt lat="42.13186" lon="0.98855">
        <ele>523.6706</ele>
        <time>2021-07-22T12:02:09Z</time>
      </trkpt>
      <trkpt lat="42.13186" lon="0.98855">
        <ele>523.6706</ele>
        <time>2021-07-22T12:03:08Z</time>
      </trkpt>
      <trkpt lat="42.13186" lon="0.98855">
        <ele>523.6706</ele>
        <time>2021-07-22T12:04:08Z</time>
      </trkpt>
      <trkpt lat="42.13184" lon="0.98854">
        <ele>525.1593</ele>
        <time>2021-07-22T12:05:08Z</time>
      </trkpt>
      <trkpt lat="42.13184" lon="0.98854">
        <ele>525.1593</ele>
        <time>2021-07-22T12:06:08Z</time>
      </trkpt>
      <trkpt lat="42.13185" lon="0.98857">
        <ele>526.2506</ele>
        <time>2021-07-22T12:07:07Z</time>
      </trkpt>
      <trkpt lat="42.13184" lon="0.98856">
        <ele>525.1488</ele>
        <time>2021-07-22T12:08:07Z</time>
      </trkpt>
      <trkpt lat="42.13184" lon="0.98856">
        <ele>525.1488</ele>
        <time>2021-07-22T12:09:06Z</time>
      </trkpt>
      <trkpt lat="42.13183" lon="0.98854">
        <ele>526.3979</ele>
        <time>2021-07-22T12:10:06Z</time>
      </trkpt>
      <trkpt lat="42.13183" lon="0.98856">
        <ele>525.8263</ele>
        <time>2021-07-22T12:11:05Z</time>
      </trkpt>
      <trkpt lat="42.13185" lon="0.98856">
        <ele>525.4676</ele>
        <time>2021-07-22T12:12:05Z</time>
      </trkpt>
      <trkpt lat="42.13184" lon="0.98859">
        <ele>523.5139</ele>
        <time>2021-07-22T12:13:04Z</time>
      </trkpt>
      <trkpt lat="42.13185" lon="0.98855">
        <ele>526.1328</ele>
        <time>2021-07-22T12:14:03Z</time>
      </trkpt>
      <trkpt lat="42.13187" lon="0.98834">
        <ele>526.6</ele>
        <time>2021-07-22T12:14:14Z</time>
      </trkpt>
      <trkpt lat="42.13197" lon="0.98801">
        <ele>528.674</ele>
        <time>2021-07-22T12:14:25Z</time>
      </trkpt>
      <trkpt lat="42.13183" lon="0.98693">
        <ele>528.7719</ele>
        <time>2021-07-22T12:14:36Z</time>
      </trkpt>
      <trkpt lat="42.13228" lon="0.98536">
        <ele>526.1326</ele>
        <time>2021-07-22T12:14:47Z</time>
      </trkpt>
      <trkpt lat="42.13248" lon="0.98379">
        <ele>525.5678</ele>
        <time>2021-07-22T12:14:58Z</time>
      </trkpt>
      <trkpt lat="42.13264" lon="0.98228">
        <ele>525.9963</ele>
        <time>2021-07-22T12:15:09Z</time>
      </trkpt>
      <trkpt lat="42.13262" lon="0.9809">
        <ele>528.1093</ele>
        <time>2021-07-22T12:15:20Z</time>
      </trkpt>
      <trkpt lat="42.13248" lon="0.97945">
        <ele>525.618</ele>
        <time>2021-07-22T12:15:31Z</time>
      </trkpt>
      <trkpt lat="42.13234" lon="0.97802">
        <ele>522.5907</ele>
        <time>2021-07-22T12:15:42Z</time>
      </trkpt>
      <trkpt lat="42.13218" lon="0.97653">
        <ele>519.5587</ele>
        <time>2021-07-22T12:15:53Z</time>
      </trkpt>
      <trkpt lat="42.13203" lon="0.97501">
        <ele>517.0497</ele>
        <time>2021-07-22T12:16:04Z</time>
      </trkpt>
      <trkpt lat="42.13185" lon="0.97357">
        <ele>515.3481</ele>
        <time>2021-07-22T12:16:15Z</time>
      </trkpt>
      <trkpt lat="42.13159" lon="0.97218">
        <ele>511.5338</ele>
        <time>2021-07-22T12:16:26Z</time>
      </trkpt>
      <trkpt lat="42.13127" lon="0.97079">
        <ele>507.6097</ele>
        <time>2021-07-22T12:16:37Z</time>
      </trkpt>
      <trkpt lat="42.13093" lon="0.96939">
        <ele>504.0193</ele>
        <time>2021-07-22T12:16:48Z</time>
      </trkpt>
      <trkpt lat="42.13058" lon="0.96798">
        <ele>499.9491</ele>
        <time>2021-07-22T12:16:59Z</time>
      </trkpt>
      <trkpt lat="42.13024" lon="0.96664">
        <ele>497.3079</ele>
        <time>2021-07-22T12:17:10Z</time>
      </trkpt>
      <trkpt lat="42.12992" lon="0.96526">
        <ele>496.546</ele>
        <time>2021-07-22T12:17:21Z</time>
      </trkpt>
      <trkpt lat="42.1296" lon="0.96397">
        <ele>494.7702</ele>
        <time>2021-07-22T12:17:32Z</time>
      </trkpt>
      <trkpt lat="42.12929" lon="0.96258">
        <ele>491.3256</ele>
        <time>2021-07-22T12:17:43Z</time>
      </trkpt>
      <trkpt lat="42.12913" lon="0.96103">
        <ele>488.526</ele>
        <time>2021-07-22T12:17:54Z</time>
      </trkpt>
      <trkpt lat="42.1291" lon="0.95967">
        <ele>486.6705</ele>
        <time>2021-07-22T12:18:05Z</time>
      </trkpt>
      <trkpt lat="42.12906" lon="0.95824">
        <ele>481.7636</ele>
        <time>2021-07-22T12:18:16Z</time>
      </trkpt>
      <trkpt lat="42.12903" lon="0.95688">
        <ele>478.8031</ele>
        <time>2021-07-22T12:18:27Z</time>
      </trkpt>
      <trkpt lat="42.12908" lon="0.95546">
        <ele>477.8427</ele>
        <time>2021-07-22T12:18:38Z</time>
      </trkpt>
      <trkpt lat="42.1295" lon="0.95405">
        <ele>474.428</ele>
        <time>2021-07-22T12:18:49Z</time>
      </trkpt>
      <trkpt lat="42.13029" lon="0.95299">
        <ele>469.0025</ele>
        <time>2021-07-22T12:19:00Z</time>
      </trkpt>
      <trkpt lat="42.1313" lon="0.95236">
        <ele>462.1566</ele>
        <time>2021-07-22T12:19:11Z</time>
      </trkpt>
      <trkpt lat="42.1323" lon="0.95179">
        <ele>457.0341</ele>
        <time>2021-07-22T12:19:22Z</time>
      </trkpt>
      <trkpt lat="42.13329" lon="0.95122">
        <ele>455.8459</ele>
        <time>2021-07-22T12:19:33Z</time>
      </trkpt>
      <trkpt lat="42.13423" lon="0.95049">
        <ele>461.363</ele>
        <time>2021-07-22T12:19:44Z</time>
      </trkpt>
      <trkpt lat="42.1349" lon="0.94943">
        <ele>467.4948</ele>
        <time>2021-07-22T12:19:55Z</time>
      </trkpt>
      <trkpt lat="42.13546" lon="0.94826">
        <ele>472.404</ele>
        <time>2021-07-22T12:20:06Z</time>
      </trkpt>
      <trkpt lat="42.13609" lon="0.9471">
        <ele>470.6609</ele>
        <time>2021-07-22T12:20:17Z</time>
      </trkpt>
      <trkpt lat="42.13683" lon="0.94592">
        <ele>469.6955</ele>
        <time>2021-07-22T12:20:28Z</time>
      </trkpt>
      <trkpt lat="42.13754" lon="0.94484">
        <ele>469.2011</ele>
        <time>2021-07-22T12:20:39Z</time>
      </trkpt>
      <trkpt lat="42.13823" lon="0.94376">
        <ele>469.2668</ele>
        <time>2021-07-22T12:20:50Z</time>
      </trkpt>
      <trkpt lat="42.13884" lon="0.94256">
        <ele>467.9226</ele>
        <time>2021-07-22T12:21:01Z</time>
      </trkpt>
      <trkpt lat="42.13924" lon="0.94112">
        <ele>465.8855</ele>
        <time>2021-07-22T12:21:12Z</time>
      </trkpt>
      <trkpt lat="42.13963" lon="0.93976">
        <ele>462.1893</ele>
        <time>2021-07-22T12:21:23Z</time>
      </trkpt>
      <trkpt lat="42.13999" lon="0.93849">
        <ele>459.2927</ele>
        <time>2021-07-22T12:21:34Z</time>
      </trkpt>
      <trkpt lat="42.14034" lon="0.93723">
        <ele>461.05</ele>
        <time>2021-07-22T12:21:45Z</time>
      </trkpt>
      <trkpt lat="42.14073" lon="0.93585">
        <ele>464.5189</ele>
        <time>2021-07-22T12:21:56Z</time>
      </trkpt>
      <trkpt lat="42.14109" lon="0.93452">
        <ele>463.0856</ele>
        <time>2021-07-22T12:22:07Z</time>
      </trkpt>
      <trkpt lat="42.14147" lon="0.93307">
        <ele>458.6451</ele>
        <time>2021-07-22T12:22:18Z</time>
      </trkpt>
      <trkpt lat="42.14189" lon="0.93167">
        <ele>453.4035</ele>
        <time>2021-07-22T12:22:29Z</time>
      </trkpt>
      <trkpt lat="42.14213" lon="0.93087">
        <ele>451.0631</ele>
        <time>2021-07-22T12:22:40Z</time>
      </trkpt>
      <trkpt lat="42.14172" lon="0.93042">
        <ele>450.5734</ele>
        <time>2021-07-22T12:22:51Z</time>
      </trkpt>
      <trkpt lat="42.14155" lon="0.93055">
        <ele>451.3393</ele>
        <time>2021-07-22T12:23:02Z</time>
      </trkpt>
      <trkpt lat="42.1419" lon="0.93084">
        <ele>451.3766</ele>
        <time>2021-07-22T12:23:13Z</time>
      </trkpt>
      <trkpt lat="42.14227" lon="0.93053">
        <ele>450.2705</ele>
        <time>2021-07-22T12:23:24Z</time>
      </trkpt>
      <trkpt lat="42.14228" lon="0.93052">
        <ele>450.5647</ele>
        <time>2021-07-22T12:24:24Z</time>
      </trkpt>
      <trkpt lat="42.14224" lon="0.93053">
        <ele>450.6131</ele>
        <time>2021-07-22T12:24:49Z</time>
      </trkpt>
      <trkpt lat="42.14194" lon="0.93078">
        <ele>451.2637</ele>
        <time>2021-07-22T12:25:00Z</time>
      </trkpt>
      <trkpt lat="42.14214" lon="0.93084">
        <ele>451.4404</ele>
        <time>2021-07-22T12:25:11Z</time>
      </trkpt>
      <trkpt lat="42.14207" lon="0.93079">
        <ele>451.7169</ele>
        <time>2021-07-22T12:25:22Z</time>
      </trkpt>
      <trkpt lat="42.14238" lon="0.93037">
        <ele>449.1564</ele>
        <time>2021-07-22T12:25:33Z</time>
      </trkpt>
      <trkpt lat="42.14302" lon="0.92857">
        <ele>447.1951</ele>
        <time>2021-07-22T12:25:44Z</time>
      </trkpt>
      <trkpt lat="42.1436" lon="0.92706">
        <ele>448.6406</ele>
        <time>2021-07-22T12:25:55Z</time>
      </trkpt>
      <trkpt lat="42.14411" lon="0.92565">
        <ele>450.1625</ele>
        <time>2021-07-22T12:26:06Z</time>
      </trkpt>
      <trkpt lat="42.14464" lon="0.92395">
        <ele>449.4835</ele>
        <time>2021-07-22T12:26:17Z</time>
      </trkpt>
      <trkpt lat="42.14462" lon="0.92207">
        <ele>446.8276</ele>
        <time>2021-07-22T12:26:28Z</time>
      </trkpt>
      <trkpt lat="42.14473" lon="0.92018">
        <ele>446.0808</ele>
        <time>2021-07-22T12:26:39Z</time>
      </trkpt>
      <trkpt lat="42.14556" lon="0.91881">
        <ele>440.9396</ele>
        <time>2021-07-22T12:26:50Z</time>
      </trkpt>
      <trkpt lat="42.14656" lon="0.91779">
        <ele>441.4751</ele>
        <time>2021-07-22T12:27:01Z</time>
      </trkpt>
      <trkpt lat="42.14777" lon="0.91731">
        <ele>441.6008</ele>
        <time>2021-07-22T12:27:12Z</time>
      </trkpt>
      <trkpt lat="42.14906" lon="0.91679">
        <ele>442.9729</ele>
        <time>2021-07-22T12:27:23Z</time>
      </trkpt>
      <trkpt lat="42.15053" lon="0.91625">
        <ele>439.9818</ele>
        <time>2021-07-22T12:27:34Z</time>
      </trkpt>
      <trkpt lat="42.15189" lon="0.91577">
        <ele>439.7616</ele>
        <time>2021-07-22T12:27:45Z</time>
      </trkpt>
      <trkpt lat="42.15332" lon="0.91525">
        <ele>439.3759</ele>
        <time>2021-07-22T12:27:56Z</time>
      </trkpt>
      <trkpt lat="42.15479" lon="0.91486">
        <ele>436.6132</ele>
        <time>2021-07-22T12:28:07Z</time>
      </trkpt>
      <trkpt lat="42.15623" lon="0.91464">
        <ele>440.2893</ele>
        <time>2021-07-22T12:28:18Z</time>
      </trkpt>
      <trkpt lat="42.15769" lon="0.91439">
        <ele>442.5433</ele>
        <time>2021-07-22T12:28:29Z</time>
      </trkpt>
      <trkpt lat="42.15883" lon="0.9129">
        <ele>440.6891</ele>
        <time>2021-07-22T12:28:40Z</time>
      </trkpt>
      <trkpt lat="42.15969" lon="0.91145">
        <ele>436.2916</ele>
        <time>2021-07-22T12:28:51Z</time>
      </trkpt>
      <trkpt lat="42.16041" lon="0.90996">
        <ele>432.802</ele>
        <time>2021-07-22T12:29:02Z</time>
      </trkpt>
      <trkpt lat="42.16157" lon="0.909">
        <ele>428.7587</ele>
        <time>2021-07-22T12:29:13Z</time>
      </trkpt>
      <trkpt lat="42.16282" lon="0.90809">
        <ele>424.5709</ele>
        <time>2021-07-22T12:29:24Z</time>
      </trkpt>
      <trkpt lat="42.16422" lon="0.90747">
        <ele>421.4034</ele>
        <time>2021-07-22T12:29:35Z</time>
      </trkpt>
      <trkpt lat="42.16561" lon="0.90753">
        <ele>425.4661</ele>
        <time>2021-07-22T12:29:46Z</time>
      </trkpt>
      <trkpt lat="42.16707" lon="0.90756">
        <ele>426.4744</ele>
        <time>2021-07-22T12:29:57Z</time>
      </trkpt>
      <trkpt lat="42.16813" lon="0.90715">
        <ele>424.9959</ele>
        <time>2021-07-22T12:30:08Z</time>
      </trkpt>
      <trkpt lat="42.16829" lon="0.90527">
        <ele>425.5394</ele>
        <time>2021-07-22T12:30:19Z</time>
      </trkpt>
      <trkpt lat="42.16783" lon="0.90353">
        <ele>422.0675</ele>
        <time>2021-07-22T12:30:30Z</time>
      </trkpt>
      <trkpt lat="42.16655" lon="0.90239">
        <ele>427.2131</ele>
        <time>2021-07-22T12:30:41Z</time>
      </trkpt>
      <trkpt lat="42.16555" lon="0.90154">
        <ele>427.4565</ele>
        <time>2021-07-22T12:30:52Z</time>
      </trkpt>
      <trkpt lat="42.16445" lon="0.90064">
        <ele>435.6563</ele>
        <time>2021-07-22T12:31:03Z</time>
      </trkpt>
      <trkpt lat="42.16355" lon="0.89951">
        <ele>439.0437</ele>
        <time>2021-07-22T12:31:14Z</time>
      </trkpt>
      <trkpt lat="42.16354" lon="0.89777">
        <ele>444.5113</ele>
        <time>2021-07-22T12:31:25Z</time>
      </trkpt>
      <trkpt lat="42.16364" lon="0.8961">
        <ele>450.3909</ele>
        <time>2021-07-22T12:31:36Z</time>
      </trkpt>
      <trkpt lat="42.16386" lon="0.89494">
        <ele>455.8431</ele>
        <time>2021-07-22T12:31:47Z</time>
      </trkpt>
      <trkpt lat="42.16454" lon="0.89493">
        <ele>462.0853</ele>
        <time>2021-07-22T12:31:58Z</time>
      </trkpt>
      <trkpt lat="42.16529" lon="0.89518">
        <ele>469.3775</ele>
        <time>2021-07-22T12:32:09Z</time>
      </trkpt>
      <trkpt lat="42.16603" lon="0.89544">
        <ele>477.2251</ele>
        <time>2021-07-22T12:32:20Z</time>
      </trkpt>
      <trkpt lat="42.16654" lon="0.89599">
        <ele>471.5594</ele>
        <time>2021-07-22T12:32:31Z</time>
      </trkpt>
      <trkpt lat="42.1667" lon="0.89617">
        <ele>471.4824</ele>
        <time>2021-07-22T12:32:42Z</time>
      </trkpt>
      <trkpt lat="42.16673" lon="0.89619">
        <ele>471.3302</ele>
        <time>2021-07-22T12:32:53Z</time>
      </trkpt>
      <trkpt lat="42.16669" lon="0.89617">
        <ele>469.2979</ele>
        <time>2021-07-22T12:33:07Z</time>
      </trkpt>
      <trkpt lat="42.16676" lon="0.8962">
        <ele>470.6047</ele>
        <time>2021-07-22T12:33:18Z</time>
      </trkpt>
      <trkpt lat="42.16673" lon="0.89616">
        <ele>470.0945</ele>
        <time>2021-07-22T12:33:34Z</time>
      </trkpt>
      <trkpt lat="42.16669" lon="0.89617">
        <ele>466.762</ele>
        <time>2021-07-22T12:34:26Z</time>
      </trkpt>
      <trkpt lat="42.16665" lon="0.89617">
        <ele>464.9165</ele>
        <time>2021-07-22T12:35:15Z</time>
      </trkpt>
      <trkpt lat="42.16666" lon="0.89612">
        <ele>460.8113</ele>
        <time>2021-07-22T12:35:31Z</time>
      </trkpt>
      <trkpt lat="42.16662" lon="0.89613">
        <ele>468.4762</ele>
        <time>2021-07-22T12:36:25Z</time>
      </trkpt>
      <trkpt lat="42.16666" lon="0.89615">
        <ele>467.7963</ele>
        <time>2021-07-22T12:36:43Z</time>
      </trkpt>
      <trkpt lat="42.16669" lon="0.89611">
        <ele>468.6582</ele>
        <time>2021-07-22T12:36:55Z</time>
      </trkpt>
      <trkpt lat="42.16665" lon="0.89609">
        <ele>470.955</ele>
        <time>2021-07-22T12:37:39Z</time>
      </trkpt>
      <trkpt lat="42.16657" lon="0.89617">
        <ele>470.5283</ele>
        <time>2021-07-22T12:37:50Z</time>
      </trkpt>
      <trkpt lat="42.16652" lon="0.8961">
        <ele>470.4444</ele>
        <time>2021-07-22T12:38:01Z</time>
      </trkpt>
      <trkpt lat="42.16648" lon="0.89603">
        <ele>468.6187</ele>
        <time>2021-07-22T12:38:12Z</time>
      </trkpt>
      <trkpt lat="42.16642" lon="0.89593">
        <ele>469.7663</ele>
        <time>2021-07-22T12:38:23Z</time>
      </trkpt>
      <trkpt lat="42.1664" lon="0.89583">
        <ele>466.9481</ele>
        <time>2021-07-22T12:38:34Z</time>
      </trkpt>
      <trkpt lat="42.16635" lon="0.89577">
        <ele>468.2983</ele>
        <time>2021-07-22T12:38:45Z</time>
      </trkpt>
      <trkpt lat="42.16639" lon="0.89572">
        <ele>468.8164</ele>
        <time>2021-07-22T12:39:19Z</time>
      </trkpt>
      <trkpt lat="42.16641" lon="0.89563">
        <ele>469.1619</ele>
        <time>2021-07-22T12:39:30Z</time>
      </trkpt>
    </trkseg>
  </trk>
</gpx>